RFR7041 LICZ-LICZ
Flight info
| Callsign | RFR7041 |
|---|---|
| Flight time | 6h 41m |
| Altitude | 30000 |
| Route | ALUDU DCT DIRKA DCT DOBIX/N0401F180 M978 SONAK/N0438F240 M978 TUC A411 JIL/N0470F320 DCT ZEM DCT FOZNA DCT MOS A411 ORA DCT ALM/N0402F190 H104 BARIS/N0469F320 DCT TOLSI DCT AGDAL DCT LAKAM R722 MARJA DCT OSDAM DCT TTN DCT IXIRI DCT ORA A411 MOS DCT FOZNA DCT ZEM DCT JIL/N0424F230 A411 TUC M978 SONAK/N0463F340 M978 DOBIX DCT DIRKA DCT ALUDU |
| Aircraft | P8/M-SDE2E3FGHIRWXY/LB1 |
Departure
| Time | 2026-05-05 12:47 |
|---|---|
| Airport | Sigonella Navy Air Base (LICZ) |
Arrival
| Time | 2026-05-05 19:28 |
|---|---|
| Airport | Sigonella Navy Air Base (LICZ) |
| Time | Latitude | Longitude | Altitude | Speed | Heading |
|---|---|---|---|---|---|
| 2026-05-05 12:19 | 37.40730 | 14.91640 | 83 ft | 0 kts | 94° |
| 2026-05-05 12:40 | 37.40730 | 14.91641 | 83 ft | 1 kts | 94° |
| 2026-05-05 12:41 | 37.40728 | 14.91661 | 87 ft | 4 kts | 106° |
| 2026-05-05 12:41 | 37.40709 | 14.91677 | 85 ft | 6 kts | 167° |
| 2026-05-05 12:41 | 37.40652 | 14.91678 | 84 ft | 10 kts | 181° |
| 2026-05-05 12:41 | 37.40598 | 14.91649 | 83 ft | 8 kts | 267° |
| 2026-05-05 12:42 | 37.40585 | 14.91535 | 84 ft | 12 kts | 206° |
| 2026-05-05 12:42 | 37.40568 | 14.91429 | 84 ft | 14 kts | 283° |
| 2026-05-05 12:42 | 37.40580 | 14.91342 | 85 ft | 16 kts | 281° |
| 2026-05-05 12:42 | 37.40592 | 14.91196 | 85 ft | 18 kts | 280° |
| 2026-05-05 12:43 | 37.40619 | 14.91026 | 89 ft | 21 kts | 282° |
| 2026-05-05 12:43 | 37.40599 | 14.90935 | 87 ft | 13 kts | 200° |
| 2026-05-05 12:43 | 37.40555 | 14.90922 | 85 ft | 2 kts | 190° |
| 2026-05-05 12:43 | 37.40527 | 14.90916 | 86 ft | 6 kts | 190° |
| 2026-05-05 12:44 | 37.40476 | 14.90907 | 85 ft | 9 kts | 188° |
| 2026-05-05 12:44 | 37.40429 | 14.90897 | 88 ft | 8 kts | 189° |
| 2026-05-05 12:44 | 37.40408 | 14.90893 | 87 ft | 0 kts | 189° |
| 2026-05-05 12:44 | 37.40406 | 14.90893 | 87 ft | 2 kts | 189° |
| 2026-05-05 12:45 | 37.40380 | 14.90888 | 86 ft | 6 kts | 186° |
| 2026-05-05 12:45 | 37.40329 | 14.90896 | 88 ft | 9 kts | 141° |
| 2026-05-05 12:45 | 37.40314 | 14.90941 | 88 ft | 0 kts | 97° |
| 2026-05-05 12:46 | 37.40303 | 14.91037 | 85 ft | 44 kts | 98° |
| 2026-05-05 12:46 | 37.40216 | 14.91772 | 84 ft | 123 kts | 98° |
| 2026-05-05 12:46 | 37.40059 | 14.93116 | 136 ft | 183 kts | 98° |
| 2026-05-05 12:47 | 37.39840 | 14.94762 | 866 ft | 195 kts | 101° |
| 2026-05-05 12:47 | 37.39618 | 14.96430 | 1799 ft | 197 kts | 99° |
| 2026-05-05 12:47 | 37.39397 | 14.98211 | 2216 ft | 215 kts | 100° |
| 2026-05-05 12:47 | 37.39155 | 15.00177 | 2563 ft | 235 kts | 99° |
| 2026-05-05 12:48 | 37.38915 | 15.02261 | 2969 ft | 252 kts | 99° |
| 2026-05-05 12:48 | 37.38657 | 15.04514 | 3462 ft | 267 kts | 99° |
| 2026-05-05 12:48 | 37.38392 | 15.06812 | 4316 ft | 269 kts | 98° |
| 2026-05-05 12:48 | 37.38120 | 15.09156 | 5178 ft | 274 kts | 98° |
| 2026-05-05 12:49 | 37.37840 | 15.11541 | 6000 ft | 277 kts | 98° |
| 2026-05-05 12:49 | 37.37555 | 15.13960 | 6770 ft | 283 kts | 98° |
| 2026-05-05 12:49 | 37.37264 | 15.16408 | 7554 ft | 286 kts | 98° |
| 2026-05-05 12:49 | 37.36967 | 15.18882 | 8345 ft | 289 kts | 98° |
| 2026-05-05 12:50 | 37.36661 | 15.21412 | 9039 ft | 294 kts | 98° |
| 2026-05-05 12:50 | 37.36349 | 15.23986 | 9740 ft | 302 kts | 99° |
| 2026-05-05 12:50 | 37.35907 | 15.26567 | 10412 ft | 306 kts | 114° |
| 2026-05-05 12:50 | 37.34701 | 15.28830 | 10745 ft | 323 kts | 132° |
| 2026-05-05 12:51 | 37.33156 | 15.31028 | 10907 ft | 346 kts | 133° |
| 2026-05-05 12:51 | 37.31512 | 15.33363 | 11075 ft | 368 kts | 132° |
| 2026-05-05 12:51 | 37.29793 | 15.35876 | 11211 ft | 389 kts | 131° |
| 2026-05-05 12:51 | 37.28019 | 15.38536 | 11421 ft | 405 kts | 130° |
| 2026-05-05 12:52 | 37.26209 | 15.41300 | 11869 ft | 412 kts | 130° |
| 2026-05-05 12:52 | 37.24382 | 15.44105 | 12430 ft | 417 kts | 130° |
| 2026-05-05 12:52 | 37.22506 | 15.46887 | 12979 ft | 420 kts | 136° |
| 2026-05-05 12:52 | 37.20111 | 15.48962 | 13468 ft | 420 kts | 160° |
| 2026-05-05 12:53 | 37.17285 | 15.49762 | 14044 ft | 416 kts | 180° |
| 2026-05-05 12:53 | 37.14460 | 15.49470 | 14534 ft | 414 kts | 196° |
| 2026-05-05 12:53 | 37.11794 | 15.48166 | 14995 ft | 412 kts | 212° |
| 2026-05-05 12:53 | 37.09523 | 15.46017 | 15495 ft | 409 kts | 229° |
| 2026-05-05 12:54 | 37.06295 | 15.40165 | 16499 ft | 411 kts | 240° |
| 2026-05-05 12:54 | 37.04781 | 15.37118 | 16966 ft | 414 kts | 240° |
| 2026-05-05 12:54 | 37.03253 | 15.34043 | 17422 ft | 417 kts | 240° |
| 2026-05-05 12:55 | 37.01714 | 15.30963 | 17898 ft | 419 kts | 240° |
| 2026-05-05 12:55 | 37.00149 | 15.27858 | 18355 ft | 422 kts | 239° |
| 2026-05-05 12:55 | 36.98573 | 15.24752 | 18772 ft | 424 kts | 239° |
| 2026-05-05 12:55 | 36.96981 | 15.21629 | 19170 ft | 426 kts | 239° |
| 2026-05-05 12:56 | 36.95381 | 15.18499 | 19515 ft | 430 kts | 239° |
| 2026-05-05 12:56 | 36.93762 | 15.15339 | 19890 ft | 432 kts | 239° |
| 2026-05-05 12:56 | 36.92138 | 15.12173 | 20291 ft | 434 kts | 239° |
| 2026-05-05 12:56 | 36.90506 | 15.08993 | 20662 ft | 436 kts | 239° |
| 2026-05-05 12:57 | 36.88861 | 15.05792 | 21014 ft | 439 kts | 239° |
| 2026-05-05 12:57 | 36.87206 | 15.02575 | 21362 ft | 441 kts | 239° |
| 2026-05-05 12:57 | 36.85542 | 14.99341 | 21715 ft | 443 kts | 239° |
| 2026-05-05 12:57 | 36.83868 | 14.96091 | 22057 ft | 446 kts | 239° |
| 2026-05-05 12:58 | 36.82186 | 14.92829 | 22408 ft | 448 kts | 239° |
| 2026-05-05 12:58 | 36.80497 | 14.89557 | 22735 ft | 450 kts | 239° |
| 2026-05-05 12:58 | 36.78798 | 14.86269 | 23056 ft | 452 kts | 239° |
| 2026-05-05 12:58 | 36.77094 | 14.82974 | 23357 ft | 454 kts | 239° |
| 2026-05-05 12:59 | 36.75376 | 14.79654 | 23637 ft | 456 kts | 239° |
| 2026-05-05 12:59 | 36.73649 | 14.76321 | 23891 ft | 458 kts | 239° |
| 2026-05-05 12:59 | 36.71941 | 14.73028 | 24156 ft | 459 kts | 239° |
| 2026-05-05 13:00 | 36.68465 | 14.66336 | 24670 ft | 461 kts | 239° |
| 2026-05-05 13:00 | 36.66716 | 14.62974 | 24919 ft | 463 kts | 239° |
| 2026-05-05 13:01 | 36.61520 | 14.53003 | 26650 ft | 442 kts | 239° |
| 2026-05-05 13:01 | 36.59868 | 14.49842 | 27539 ft | 430 kts | 239° |
| 2026-05-05 13:01 | 36.58261 | 14.46769 | 28465 ft | 417 kts | 239° |
| 2026-05-05 13:01 | 36.56705 | 14.43794 | 29320 ft | 407 kts | 240° |
| 2026-05-05 13:02 | 36.55163 | 14.40843 | 29761 ft | 408 kts | 240° |
| 2026-05-05 13:02 | 36.53606 | 14.37869 | 29985 ft | 412 kts | 240° |
| 2026-05-05 13:02 | 36.52074 | 14.34909 | 30705 ft | 399 kts | 243° |
| 2026-05-05 13:02 | 36.50959 | 14.31849 | 31649 ft | 378 kts | 254° |
| 2026-05-05 13:03 | 36.50297 | 14.28757 | 32463 ft | 364 kts | 261° |
| 2026-05-05 13:03 | 36.49993 | 14.25652 | 32839 ft | 362 kts | 270° |
| 2026-05-05 13:03 | 36.50035 | 14.19270 | 32974 ft | 375 kts | 271° |
| 2026-05-05 13:04 | 36.50079 | 14.16017 | 33086 ft | 380 kts | 271° |
| 2026-05-05 13:04 | 36.50121 | 14.12750 | 33089 ft | 386 kts | 271° |
| 2026-05-05 13:04 | 36.50190 | 14.05985 | 33102 ft | 397 kts | 271° |
| 2026-05-05 13:05 | 36.50244 | 13.99026 | 33094 ft | 408 kts | 271° |
| 2026-05-05 13:05 | 36.50289 | 13.91893 | 33095 ft | 418 kts | 271° |
| 2026-05-05 13:06 | 36.50329 | 13.84596 | 33096 ft | 427 kts | 271° |
| 2026-05-05 13:06 | 36.50366 | 13.77171 | 33080 ft | 431 kts | 271° |
| 2026-05-05 13:07 | 36.50397 | 13.69705 | 33077 ft | 432 kts | 271° |
| 2026-05-05 13:07 | 36.50425 | 13.62225 | 33079 ft | 433 kts | 271° |
| 2026-05-05 13:08 | 36.50448 | 13.54757 | 33078 ft | 432 kts | 271° |
| 2026-05-05 13:08 | 36.50466 | 13.47289 | 33078 ft | 432 kts | 270° |
| 2026-05-05 13:09 | 36.50480 | 13.39828 | 33075 ft | 431 kts | 270° |
| 2026-05-05 13:09 | 36.50488 | 13.32381 | 33073 ft | 430 kts | 270° |
| 2026-05-05 13:10 | 36.50493 | 13.24945 | 33076 ft | 430 kts | 270° |
| 2026-05-05 13:10 | 36.50493 | 13.17520 | 33076 ft | 429 kts | 270° |
| 2026-05-05 13:11 | 36.50488 | 13.10105 | 33066 ft | 429 kts | 270° |
| 2026-05-05 13:11 | 36.50478 | 13.02705 | 33071 ft | 428 kts | 270° |
| 2026-05-05 13:12 | 36.50465 | 12.95343 | 33071 ft | 428 kts | 270° |
| 2026-05-05 13:12 | 36.50446 | 12.87928 | 33071 ft | 429 kts | 270° |
| 2026-05-05 13:13 | 36.50423 | 12.80516 | 33069 ft | 429 kts | 270° |
| 2026-05-05 13:13 | 36.50395 | 12.73090 | 33063 ft | 430 kts | 270° |
| 2026-05-05 13:14 | 36.50363 | 12.65660 | 33069 ft | 430 kts | 270° |
| 2026-05-05 13:14 | 36.50326 | 12.58210 | 33062 ft | 431 kts | 270° |
| 2026-05-05 13:15 | 36.50284 | 12.50753 | 33064 ft | 432 kts | 270° |
| 2026-05-05 13:15 | 36.50238 | 12.43327 | 33060 ft | 432 kts | 270° |
| 2026-05-05 13:16 | 36.50187 | 12.35855 | 33057 ft | 433 kts | 270° |
| 2026-05-05 13:16 | 36.50131 | 12.28364 | 33059 ft | 433 kts | 270° |
| 2026-05-05 13:17 | 36.50072 | 12.20877 | 33053 ft | 433 kts | 270° |
| 2026-05-05 13:17 | 36.50071 | 12.13383 | 33050 ft | 433 kts | 274° |
| 2026-05-05 13:18 | 36.51212 | 12.06037 | 33055 ft | 433 kts | 283° |
| 2026-05-05 13:18 | 36.52672 | 11.98769 | 33053 ft | 433 kts | 283° |
| 2026-05-05 13:19 | 36.54100 | 11.91485 | 33051 ft | 433 kts | 283° |
| 2026-05-05 13:19 | 36.55504 | 11.84199 | 33048 ft | 433 kts | 282° |
| 2026-05-05 13:20 | 36.56895 | 11.76918 | 33049 ft | 433 kts | 282° |
| 2026-05-05 13:20 | 36.58274 | 11.69675 | 33047 ft | 433 kts | 282° |
| 2026-05-05 13:21 | 36.59657 | 11.62392 | 33049 ft | 432 kts | 282° |
| 2026-05-05 13:21 | 36.61036 | 11.55114 | 33040 ft | 432 kts | 282° |
| 2026-05-05 13:22 | 36.62408 | 11.47840 | 33040 ft | 432 kts | 282° |
| 2026-05-05 13:22 | 36.63769 | 11.40564 | 33041 ft | 431 kts | 282° |
| 2026-05-05 13:23 | 36.65124 | 11.33288 | 33041 ft | 431 kts | 282° |
| 2026-05-05 13:23 | 36.66474 | 11.26021 | 33046 ft | 431 kts | 282° |
| 2026-05-05 13:24 | 36.67820 | 11.18752 | 33039 ft | 431 kts | 282° |
| 2026-05-05 13:24 | 36.69159 | 11.11490 | 33041 ft | 430 kts | 282° |
| 2026-05-05 13:25 | 36.70496 | 11.04217 | 33041 ft | 430 kts | 281° |
| 2026-05-05 13:25 | 36.71830 | 10.96953 | 33035 ft | 430 kts | 281° |
| 2026-05-05 13:26 | 36.73164 | 10.89683 | 33037 ft | 430 kts | 281° |
| 2026-05-05 13:26 | 36.74493 | 10.82415 | 33033 ft | 430 kts | 281° |
| 2026-05-05 13:27 | 36.75818 | 10.75136 | 33028 ft | 430 kts | 281° |
| 2026-05-05 13:27 | 36.76919 | 10.69069 | 33301 ft | 432 kts | 281° |
| 2026-05-05 13:28 | 36.77792 | 10.64245 | 33786 ft | 428 kts | 281° |
| 2026-05-05 13:28 | 36.78442 | 10.60630 | 34035 ft | 427 kts | 281° |
| 2026-05-05 13:28 | 36.79739 | 10.53369 | 33996 ft | 427 kts | 281° |
| 2026-05-05 13:29 | 36.80814 | 10.47336 | 34000 ft | 424 kts | 281° |
| 2026-05-05 13:29 | 36.82087 | 10.40169 | 33995 ft | 422 kts | 281° |
| 2026-05-05 13:30 | 36.83349 | 10.33042 | 33997 ft | 420 kts | 281° |
| 2026-05-05 13:30 | 36.84597 | 10.25968 | 33997 ft | 420 kts | 281° |
| 2026-05-05 13:31 | 36.85126 | 10.18749 | 34007 ft | 418 kts | 268° |
| 2026-05-05 13:31 | 36.84983 | 10.11471 | 34002 ft | 420 kts | 268° |
| 2026-05-05 13:32 | 36.84850 | 10.04155 | 33992 ft | 423 kts | 268° |
| 2026-05-05 13:32 | 36.84735 | 9.96814 | 33983 ft | 425 kts | 268° |
| 2026-05-05 13:33 | 36.84623 | 9.89429 | 33980 ft | 426 kts | 268° |
| 2026-05-05 13:33 | 36.84507 | 9.82020 | 33973 ft | 427 kts | 268° |
| 2026-05-05 13:34 | 36.84386 | 9.74598 | 33957 ft | 427 kts | 268° |
| 2026-05-05 13:34 | 36.84260 | 9.67191 | 33968 ft | 426 kts | 268° |
| 2026-05-05 13:35 | 36.84130 | 9.59791 | 33959 ft | 426 kts | 268° |
| 2026-05-05 13:35 | 36.83996 | 9.52441 | 33965 ft | 426 kts | 268° |
| 2026-05-05 13:36 | 36.83857 | 9.45003 | 33972 ft | 425 kts | 267° |
| 2026-05-05 13:36 | 36.83707 | 9.37621 | 33973 ft | 425 kts | 267° |
| 2026-05-05 13:37 | 36.83544 | 9.30291 | 33968 ft | 425 kts | 267° |
| 2026-05-05 13:37 | 36.83377 | 9.22911 | 33972 ft | 424 kts | 267° |
| 2026-05-05 13:38 | 36.83208 | 9.15549 | 33980 ft | 424 kts | 267° |
| 2026-05-05 13:38 | 36.83025 | 9.08181 | 33997 ft | 424 kts | 266° |
| 2026-05-05 13:39 | 36.82802 | 9.00843 | 33988 ft | 423 kts | 266° |
| 2026-05-05 13:39 | 36.82715 | 8.93494 | 33992 ft | 424 kts | 270° |
| 2026-05-05 13:40 | 36.82913 | 8.86197 | 33988 ft | 423 kts | 270° |
| 2026-05-05 13:40 | 36.83109 | 8.78851 | 33989 ft | 423 kts | 270° |
| 2026-05-05 13:41 | 36.83268 | 8.71519 | 34001 ft | 423 kts | 269° |
| 2026-05-05 13:41 | 36.83415 | 8.64169 | 33987 ft | 423 kts | 269° |
| 2026-05-05 13:42 | 36.83443 | 8.56833 | 33983 ft | 423 kts | 268° |
| 2026-05-05 13:42 | 36.83421 | 8.49483 | 33974 ft | 423 kts | 268° |
| 2026-05-05 13:43 | 36.83404 | 8.42145 | 33976 ft | 423 kts | 268° |
| 2026-05-05 13:43 | 36.83393 | 8.34847 | 33970 ft | 423 kts | 268° |
| 2026-05-05 13:44 | 36.83381 | 8.27494 | 33976 ft | 423 kts | 268° |
| 2026-05-05 13:44 | 36.83364 | 8.20133 | 33972 ft | 424 kts | 268° |
| 2026-05-05 13:45 | 36.83342 | 8.12774 | 33970 ft | 424 kts | 268° |
| 2026-05-05 13:45 | 36.83316 | 8.05417 | 33967 ft | 424 kts | 268° |
| 2026-05-05 13:46 | 36.83286 | 7.98106 | 33975 ft | 424 kts | 267° |
| 2026-05-05 13:46 | 36.83250 | 7.90741 | 33971 ft | 425 kts | 267° |
| 2026-05-05 13:47 | 36.83211 | 7.83376 | 33968 ft | 425 kts | 267° |
| 2026-05-05 13:47 | 36.83154 | 7.75987 | 33967 ft | 425 kts | 267° |
| 2026-05-05 13:48 | 36.83076 | 7.68595 | 33971 ft | 425 kts | 266° |
| 2026-05-05 13:48 | 36.82992 | 7.61209 | 33970 ft | 426 kts | 267° |
| 2026-05-05 13:49 | 36.82906 | 7.53815 | 33969 ft | 426 kts | 266° |
| 2026-05-05 13:49 | 36.82817 | 7.46414 | 33982 ft | 426 kts | 266° |
| 2026-05-05 13:50 | 36.82723 | 7.39013 | 33979 ft | 427 kts | 266° |
| 2026-05-05 13:50 | 36.82626 | 7.31657 | 33982 ft | 427 kts | 266° |
| 2026-05-05 13:51 | 36.82523 | 7.24245 | 33974 ft | 427 kts | 266° |
| 2026-05-05 13:51 | 36.82416 | 7.16848 | 33981 ft | 426 kts | 266° |
| 2026-05-05 13:52 | 36.82304 | 7.09444 | 33976 ft | 427 kts | 266° |
| 2026-05-05 13:52 | 36.82187 | 7.02047 | 33975 ft | 426 kts | 266° |
| 2026-05-05 13:53 | 36.82066 | 6.94642 | 33981 ft | 427 kts | 266° |
| 2026-05-05 13:53 | 36.81942 | 6.87243 | 33983 ft | 426 kts | 266° |
| 2026-05-05 13:54 | 36.81810 | 6.79845 | 33992 ft | 427 kts | 266° |
| 2026-05-05 13:54 | 36.81675 | 6.72432 | 33984 ft | 427 kts | 266° |
| 2026-05-05 13:55 | 36.81536 | 6.65024 | 33988 ft | 427 kts | 266° |
| 2026-05-05 13:55 | 36.81392 | 6.57616 | 33992 ft | 427 kts | 266° |
| 2026-05-05 13:56 | 36.81244 | 6.50248 | 33985 ft | 427 kts | 266° |
| 2026-05-05 13:56 | 36.81090 | 6.42830 | 33990 ft | 427 kts | 266° |
| 2026-05-05 13:57 | 36.80932 | 6.35413 | 33992 ft | 428 kts | 266° |
| 2026-05-05 13:57 | 36.80768 | 6.27987 | 34000 ft | 428 kts | 266° |
| 2026-05-05 13:58 | 36.80601 | 6.20557 | 33997 ft | 429 kts | 266° |
| 2026-05-05 13:58 | 36.80429 | 6.13120 | 33988 ft | 429 kts | 266° |
| 2026-05-05 13:59 | 36.80163 | 6.02023 | 33996 ft | 428 kts | 266° |
| 2026-05-05 14:00 | 36.79917 | 5.92091 | 33988 ft | 427 kts | 266° |
| 2026-05-05 14:00 | 36.79753 | 5.83487 | 33991 ft | 427 kts | 268° |
| 2026-05-05 14:01 | 36.79825 | 5.76073 | 33995 ft | 426 kts | 269° |
| 2026-05-05 14:01 | 36.79918 | 5.68683 | 33999 ft | 426 kts | 268° |
| 2026-05-05 14:02 | 36.79985 | 5.61285 | 33997 ft | 426 kts | 268° |
| 2026-05-05 14:02 | 36.80033 | 5.53899 | 34004 ft | 426 kts | 268° |
| 2026-05-05 14:03 | 36.80071 | 5.46498 | 34001 ft | 427 kts | 268° |
| 2026-05-05 14:03 | 36.80105 | 5.39091 | 34001 ft | 427 kts | 268° |
| 2026-05-05 14:04 | 36.80134 | 5.31669 | 34010 ft | 428 kts | 268° |
| 2026-05-05 14:04 | 36.80158 | 5.24228 | 33998 ft | 429 kts | 268° |
| 2026-05-05 14:05 | 36.80179 | 5.16814 | 33997 ft | 431 kts | 268° |
| 2026-05-05 14:05 | 36.80195 | 5.09314 | 33998 ft | 432 kts | 268° |
| 2026-05-05 14:06 | 36.80206 | 5.01814 | 33996 ft | 432 kts | 268° |
| 2026-05-05 14:06 | 36.80212 | 4.94308 | 34005 ft | 433 kts | 268° |
| 2026-05-05 14:07 | 36.80213 | 4.86780 | 34031 ft | 436 kts | 268° |
| 2026-05-05 14:07 | 36.80211 | 4.79196 | 33986 ft | 436 kts | 268° |
| 2026-05-05 14:08 | 36.80203 | 4.71694 | 33984 ft | 434 kts | 268° |
| 2026-05-05 14:08 | 36.80191 | 4.64170 | 33986 ft | 432 kts | 268° |
| 2026-05-05 14:09 | 36.80174 | 4.56699 | 33987 ft | 430 kts | 268° |
| 2026-05-05 14:09 | 36.80152 | 4.49265 | 33996 ft | 427 kts | 267° |
| 2026-05-05 14:10 | 36.80112 | 4.41854 | 33990 ft | 426 kts | 264° |
| 2026-05-05 14:10 | 36.79489 | 4.38283 | 34001 ft | 421 kts | 247° |
| 2026-05-05 14:10 | 36.78264 | 4.34972 | 33965 ft | 421 kts | 241° |
| 2026-05-05 14:11 | 36.74655 | 4.29271 | 33997 ft | 421 kts | 225° |
| 2026-05-05 14:11 | 36.70418 | 4.24184 | 33981 ft | 423 kts | 225° |
| 2026-05-05 14:12 | 36.66297 | 4.18933 | 33961 ft | 424 kts | 235° |
| 2026-05-05 14:12 | 36.63804 | 4.12361 | 33981 ft | 426 kts | 253° |
| 2026-05-05 14:13 | 36.63232 | 4.08728 | 33973 ft | 429 kts | 264° |
| 2026-05-05 14:13 | 36.63160 | 4.05011 | 33995 ft | 430 kts | 267° |
| 2026-05-05 14:13 | 36.63168 | 3.97537 | 33972 ft | 432 kts | 268° |
| 2026-05-05 14:14 | 36.63150 | 3.90059 | 33982 ft | 432 kts | 267° |
| 2026-05-05 14:14 | 36.63092 | 3.82570 | 33970 ft | 433 kts | 267° |
| 2026-05-05 14:15 | 36.63020 | 3.75093 | 33978 ft | 433 kts | 267° |
| 2026-05-05 14:15 | 36.62982 | 3.71335 | 34088 ft | 434 kts | 267° |
| 2026-05-05 14:15 | 36.62944 | 3.67587 | 34342 ft | 432 kts | 267° |
| 2026-05-05 14:16 | 36.62919 | 3.65117 | 34562 ft | 429 kts | 266° |
| 2026-05-05 14:16 | 36.62878 | 3.61424 | 34915 ft | 424 kts | 266° |
| 2026-05-05 14:16 | 36.62073 | 3.54210 | 35000 ft | 420 kts | 251° |
| 2026-05-05 14:17 | 36.60209 | 3.47353 | 34986 ft | 417 kts | 250° |
| 2026-05-05 14:17 | 36.58432 | 3.40510 | 34979 ft | 414 kts | 252° |
| 2026-05-05 14:18 | 36.56788 | 3.33659 | 34990 ft | 413 kts | 252° |
| 2026-05-05 14:18 | 36.55193 | 3.26789 | 34978 ft | 413 kts | 252° |
| 2026-05-05 14:19 | 36.53617 | 3.19970 | 34981 ft | 414 kts | 252° |
| 2026-05-05 14:19 | 36.52016 | 3.13066 | 34971 ft | 416 kts | 252° |
| 2026-05-05 14:20 | 36.50405 | 3.06146 | 34981 ft | 417 kts | 252° |
| 2026-05-05 14:20 | 36.48784 | 2.99205 | 34978 ft | 418 kts | 252° |
| 2026-05-05 14:21 | 36.47157 | 2.92256 | 34989 ft | 419 kts | 252° |
| 2026-05-05 14:21 | 36.45520 | 2.85294 | 34977 ft | 420 kts | 252° |
| 2026-05-05 14:22 | 36.43881 | 2.78336 | 34975 ft | 420 kts | 252° |
| 2026-05-05 14:22 | 36.42238 | 2.71373 | 34976 ft | 420 kts | 252° |
| 2026-05-05 14:23 | 36.40597 | 2.64431 | 34985 ft | 419 kts | 252° |
| 2026-05-05 14:23 | 36.38956 | 2.57546 | 34985 ft | 418 kts | 252° |
| 2026-05-05 14:24 | 36.37308 | 2.50636 | 34978 ft | 417 kts | 252° |
| 2026-05-05 14:24 | 36.35659 | 2.43735 | 34981 ft | 416 kts | 252° |
| 2026-05-05 14:25 | 36.34010 | 2.36856 | 34983 ft | 416 kts | 252° |
| 2026-05-05 14:25 | 36.32359 | 2.29981 | 34983 ft | 415 kts | 252° |
| 2026-05-05 14:26 | 36.30707 | 2.23122 | 34995 ft | 415 kts | 252° |
| 2026-05-05 14:26 | 36.29040 | 2.16263 | 34992 ft | 415 kts | 251° |
| 2026-05-05 14:27 | 36.27219 | 2.09469 | 34990 ft | 415 kts | 250° |
| 2026-05-05 14:27 | 36.25345 | 2.02690 | 34991 ft | 415 kts | 250° |
| 2026-05-05 14:28 | 36.23481 | 1.95913 | 34994 ft | 415 kts | 250° |
| 2026-05-05 14:28 | 36.21638 | 1.89179 | 35002 ft | 416 kts | 250° |
| 2026-05-05 14:29 | 36.19776 | 1.82376 | 35001 ft | 417 kts | 250° |
| 2026-05-05 14:29 | 36.17911 | 1.75572 | 35000 ft | 418 kts | 250° |
| 2026-05-05 14:30 | 36.16037 | 1.68755 | 35002 ft | 418 kts | 250° |
| 2026-05-05 14:30 | 36.14158 | 1.61940 | 35007 ft | 419 kts | 250° |
| 2026-05-05 14:31 | 36.12272 | 1.55117 | 35016 ft | 419 kts | 250° |
| 2026-05-05 14:31 | 36.10380 | 1.48286 | 35020 ft | 419 kts | 250° |
| 2026-05-05 14:32 | 36.08488 | 1.41476 | 35022 ft | 418 kts | 250° |
| 2026-05-05 14:32 | 36.06610 | 1.34733 | 35009 ft | 417 kts | 250° |
| 2026-05-05 14:33 | 36.04722 | 1.27970 | 35012 ft | 415 kts | 250° |
| 2026-05-05 14:33 | 36.02840 | 1.21244 | 35002 ft | 413 kts | 250° |
| 2026-05-05 14:34 | 36.00961 | 1.14544 | 35008 ft | 412 kts | 250° |
| 2026-05-05 14:34 | 35.99080 | 1.07857 | 34994 ft | 412 kts | 250° |
| 2026-05-05 14:35 | 35.97196 | 1.01174 | 34994 ft | 412 kts | 250° |
| 2026-05-05 14:35 | 35.95309 | 0.94495 | 34992 ft | 413 kts | 250° |
| 2026-05-05 14:36 | 35.93410 | 0.87793 | 34995 ft | 414 kts | 250° |
| 2026-05-05 14:36 | 35.91502 | 0.81075 | 34992 ft | 415 kts | 250° |
| 2026-05-05 14:37 | 35.89598 | 0.74386 | 34996 ft | 417 kts | 250° |
| 2026-05-05 14:37 | 35.87670 | 0.67629 | 34992 ft | 418 kts | 250° |
| 2026-05-05 14:38 | 35.85736 | 0.60862 | 34983 ft | 419 kts | 250° |
| 2026-05-05 14:38 | 35.83807 | 0.54068 | 34985 ft | 420 kts | 253° |
| 2026-05-05 14:39 | 35.83364 | 0.50514 | 34996 ft | 422 kts | 266° |
| 2026-05-05 14:39 | 35.83465 | 0.46893 | 34983 ft | 425 kts | 274° |
| 2026-05-05 14:39 | 35.85148 | 0.39885 | 34994 ft | 432 kts | 292° |
| 2026-05-05 14:40 | 35.87801 | 0.33228 | 34988 ft | 433 kts | 292° |
| 2026-05-05 14:40 | 35.90315 | 0.26493 | 34970 ft | 429 kts | 284° |
| 2026-05-05 14:41 | 35.90867 | 0.22914 | 34993 ft | 422 kts | 272° |
| 2026-05-05 14:41 | 35.90940 | 0.19302 | 34979 ft | 421 kts | 265° |
| 2026-05-05 14:41 | 35.89600 | 0.12403 | 34988 ft | 417 kts | 246° |
| 2026-05-05 14:42 | 35.87214 | 0.05874 | 34974 ft | 417 kts | 246° |
| 2026-05-05 14:42 | 35.84820 | -0.00643 | 34981 ft | 417 kts | 246° |
| 2026-05-05 14:43 | 35.82454 | -0.07175 | 34975 ft | 417 kts | 246° |
| 2026-05-05 14:43 | 35.80101 | -0.13709 | 34982 ft | 417 kts | 246° |
| 2026-05-05 14:44 | 35.77745 | -0.20247 | 34977 ft | 417 kts | 246° |
| 2026-05-05 14:44 | 35.75390 | -0.26766 | 34974 ft | 417 kts | 246° |
| 2026-05-05 14:45 | 35.73026 | -0.33299 | 34969 ft | 417 kts | 246° |
| 2026-05-05 14:45 | 35.70675 | -0.39780 | 34972 ft | 418 kts | 246° |
| 2026-05-05 14:46 | 35.68304 | -0.46303 | 34971 ft | 418 kts | 246° |
| 2026-05-05 14:46 | 35.65917 | -0.52858 | 34969 ft | 419 kts | 246° |
| 2026-05-05 14:47 | 35.63528 | -0.59407 | 34982 ft | 420 kts | 246° |
| 2026-05-05 14:47 | 35.61319 | -0.66075 | 34963 ft | 422 kts | 254° |
| 2026-05-05 14:48 | 35.60308 | -0.73176 | 34969 ft | 422 kts | 261° |
| 2026-05-05 14:48 | 35.59492 | -0.80261 | 34972 ft | 421 kts | 261° |
| 2026-05-05 14:49 | 35.58647 | -0.87395 | 34982 ft | 421 kts | 261° |
| 2026-05-05 14:49 | 35.57785 | -0.94514 | 34990 ft | 421 kts | 261° |
| 2026-05-05 14:50 | 35.56915 | -1.01617 | 34990 ft | 420 kts | 261° |
| 2026-05-05 14:50 | 35.56040 | -1.08724 | 34990 ft | 420 kts | 261° |
| 2026-05-05 14:51 | 35.55161 | -1.15817 | 34999 ft | 419 kts | 261° |
| 2026-05-05 14:51 | 35.54282 | -1.22887 | 34997 ft | 419 kts | 261° |
| 2026-05-05 14:52 | 35.53398 | -1.29959 | 34990 ft | 418 kts | 261° |
| 2026-05-05 14:52 | 35.52519 | -1.36962 | 34986 ft | 417 kts | 261° |
| 2026-05-05 14:53 | 35.51630 | -1.44003 | 34990 ft | 416 kts | 261° |
| 2026-05-05 14:53 | 35.50739 | -1.51026 | 34996 ft | 416 kts | 261° |
| 2026-05-05 14:54 | 35.49845 | -1.58044 | 34997 ft | 415 kts | 260° |
| 2026-05-05 14:54 | 35.48954 | -1.65003 | 34968 ft | 415 kts | 261° |
| 2026-05-05 14:55 | 35.48056 | -1.71987 | 34978 ft | 414 kts | 261° |
| 2026-05-05 14:55 | 35.47153 | -1.78974 | 34988 ft | 414 kts | 261° |
| 2026-05-05 14:56 | 35.46246 | -1.85958 | 34988 ft | 414 kts | 261° |
| 2026-05-05 14:56 | 35.45335 | -1.92946 | 34991 ft | 415 kts | 260° |
| 2026-05-05 14:57 | 35.44417 | -1.99945 | 34983 ft | 416 kts | 260° |
| 2026-05-05 14:57 | 35.43500 | -2.06910 | 34979 ft | 417 kts | 260° |
| 2026-05-05 14:58 | 35.42571 | -2.13936 | 34982 ft | 418 kts | 260° |
| 2026-05-05 14:58 | 35.41637 | -2.20968 | 34982 ft | 418 kts | 260° |
| 2026-05-05 14:59 | 35.40697 | -2.28010 | 34981 ft | 419 kts | 260° |
| 2026-05-05 14:59 | 35.39752 | -2.35053 | 34983 ft | 419 kts | 260° |
| 2026-05-05 15:00 | 35.38964 | -2.40905 | 34985 ft | 418 kts | 260° |
| 2026-05-05 15:00 | 35.38014 | -2.47934 | 34982 ft | 417 kts | 260° |
| 2026-05-05 15:01 | 35.36905 | -2.56091 | 34975 ft | 417 kts | 260° |
| 2026-05-05 15:01 | 35.35949 | -2.63098 | 34969 ft | 416 kts | 260° |
| 2026-05-05 15:02 | 35.35151 | -2.68914 | 34979 ft | 416 kts | 260° |
| 2026-05-05 15:02 | 35.34191 | -2.75893 | 34968 ft | 415 kts | 260° |
| 2026-05-05 15:03 | 35.33228 | -2.82860 | 34991 ft | 414 kts | 260° |
| 2026-05-05 15:03 | 35.32263 | -2.89807 | 34993 ft | 413 kts | 260° |
| 2026-05-05 15:04 | 35.31296 | -2.96739 | 34991 ft | 412 kts | 260° |
| 2026-05-05 15:04 | 35.30333 | -3.03618 | 34992 ft | 412 kts | 260° |
| 2026-05-05 15:05 | 35.28872 | -3.13988 | 34998 ft | 412 kts | 260° |
| 2026-05-05 15:06 | 35.27894 | -3.20895 | 34995 ft | 411 kts | 260° |
| 2026-05-05 15:06 | 35.26914 | -3.27792 | 34984 ft | 411 kts | 259° |
| 2026-05-05 15:07 | 35.25929 | -3.34689 | 34982 ft | 411 kts | 259° |
| 2026-05-05 15:07 | 35.24941 | -3.41581 | 34990 ft | 411 kts | 259° |
| 2026-05-05 15:08 | 35.23956 | -3.48427 | 34984 ft | 411 kts | 259° |
| 2026-05-05 15:08 | 35.22962 | -3.55301 | 34993 ft | 410 kts | 259° |
| 2026-05-05 15:09 | 35.21965 | -3.62173 | 35006 ft | 410 kts | 259° |
| 2026-05-05 15:09 | 35.20964 | -3.69037 | 34993 ft | 410 kts | 259° |
| 2026-05-05 15:10 | 35.19960 | -3.75900 | 34999 ft | 409 kts | 259° |
| 2026-05-05 15:10 | 35.18953 | -3.82759 | 34994 ft | 410 kts | 259° |
| 2026-05-05 15:11 | 35.18018 | -3.89624 | 34988 ft | 409 kts | 261° |
| 2026-05-05 15:11 | 35.17163 | -3.96466 | 34997 ft | 410 kts | 261° |
| 2026-05-05 15:12 | 35.16298 | -4.03361 | 34999 ft | 411 kts | 261° |
| 2026-05-05 15:12 | 35.15416 | -4.10268 | 34995 ft | 411 kts | 261° |
| 2026-05-05 15:13 | 35.14527 | -4.17172 | 35012 ft | 411 kts | 261° |
| 2026-05-05 15:13 | 35.13630 | -4.24084 | 35006 ft | 412 kts | 261° |
| 2026-05-05 15:14 | 35.12727 | -4.31012 | 35006 ft | 413 kts | 261° |
| 2026-05-05 15:14 | 35.11819 | -4.37946 | 35005 ft | 413 kts | 260° |
| 2026-05-05 15:15 | 35.10916 | -4.44816 | 34976 ft | 412 kts | 260° |
| 2026-05-05 15:15 | 35.10005 | -4.51714 | 34997 ft | 412 kts | 260° |
| 2026-05-05 15:16 | 35.09088 | -4.58618 | 35011 ft | 410 kts | 260° |
| 2026-05-05 15:16 | 35.08171 | -4.65502 | 34999 ft | 411 kts | 261° |
| 2026-05-05 15:17 | 35.07251 | -4.72376 | 34994 ft | 411 kts | 260° |
| 2026-05-05 15:17 | 35.06325 | -4.79258 | 35008 ft | 411 kts | 260° |
| 2026-05-05 15:18 | 35.05391 | -4.86167 | 34967 ft | 412 kts | 260° |
| 2026-05-05 15:18 | 35.04455 | -4.93068 | 34997 ft | 413 kts | 260° |
| 2026-05-05 15:19 | 35.03512 | -5.00000 | 35000 ft | 415 kts | 260° |
| 2026-05-05 15:19 | 35.02559 | -5.06956 | 34995 ft | 416 kts | 259° |
| 2026-05-05 15:20 | 35.01607 | -5.13886 | 34984 ft | 417 kts | 259° |
| 2026-05-05 15:20 | 35.00644 | -5.20862 | 34989 ft | 416 kts | 259° |
| 2026-05-05 15:21 | 34.99677 | -5.27831 | 34990 ft | 417 kts | 259° |
| 2026-05-05 15:21 | 34.98707 | -5.34799 | 34991 ft | 417 kts | 259° |
| 2026-05-05 15:22 | 34.97729 | -5.41795 | 34992 ft | 419 kts | 259° |
| 2026-05-05 15:22 | 34.96746 | -5.48802 | 35008 ft | 419 kts | 259° |
| 2026-05-05 15:23 | 34.95762 | -5.55768 | 35002 ft | 419 kts | 259° |
| 2026-05-05 15:23 | 34.94748 | -5.62770 | 35004 ft | 420 kts | 258° |
| 2026-05-05 15:24 | 34.93725 | -5.69769 | 35016 ft | 420 kts | 258° |
| 2026-05-05 15:24 | 34.92699 | -5.76784 | 35019 ft | 420 kts | 258° |
| 2026-05-05 15:25 | 34.91673 | -5.83782 | 35021 ft | 420 kts | 258° |
| 2026-05-05 15:25 | 34.90640 | -5.90797 | 35018 ft | 420 kts | 258° |
| 2026-05-05 15:26 | 34.89171 | -5.97663 | 35036 ft | 419 kts | 251° |
| 2026-05-05 15:26 | 34.87273 | -6.04397 | 35019 ft | 420 kts | 250° |
| 2026-05-05 15:27 | 34.85385 | -6.11084 | 35024 ft | 421 kts | 251° |
| 2026-05-05 15:27 | 34.83506 | -6.17844 | 35006 ft | 421 kts | 251° |
| 2026-05-05 15:28 | 34.81640 | -6.24598 | 35013 ft | 421 kts | 251° |
| 2026-05-05 15:28 | 34.79772 | -6.31354 | 35027 ft | 421 kts | 251° |
| 2026-05-05 15:29 | 34.77904 | -6.38092 | 35017 ft | 421 kts | 251° |
| 2026-05-05 15:29 | 34.76029 | -6.44837 | 35022 ft | 421 kts | 251° |
| 2026-05-05 15:30 | 34.74153 | -6.51570 | 35018 ft | 421 kts | 251° |
| 2026-05-05 15:30 | 34.72281 | -6.58269 | 35034 ft | 421 kts | 251° |
| 2026-05-05 15:31 | 34.70396 | -6.65003 | 35029 ft | 421 kts | 251° |
| 2026-05-05 15:31 | 34.68517 | -6.71698 | 35030 ft | 417 kts | 251° |
| 2026-05-05 15:32 | 34.66638 | -6.78379 | 35037 ft | 418 kts | 251° |
| 2026-05-05 15:32 | 34.64752 | -6.85067 | 35056 ft | 419 kts | 251° |
| 2026-05-05 15:33 | 34.62857 | -6.91775 | 35051 ft | 420 kts | 251° |
| 2026-05-05 15:33 | 34.60757 | -6.98378 | 35023 ft | 421 kts | 239° |
| 2026-05-05 15:33 | 34.58970 | -7.01192 | 35062 ft | 422 kts | 228° |
| 2026-05-05 15:34 | 34.56763 | -7.03577 | 34878 ft | 430 kts | 217° |
| 2026-05-05 15:34 | 34.54142 | -7.05380 | 34629 ft | 435 kts | 210° |
| 2026-05-05 15:34 | 34.51449 | -7.07010 | 34639 ft | 431 kts | 210° |
| 2026-05-05 15:35 | 34.46071 | -7.10239 | 34621 ft | 433 kts | 210° |
| 2026-05-05 15:35 | 34.43364 | -7.11887 | 33754 ft | 440 kts | 210° |
| 2026-05-05 15:35 | 34.40652 | -7.13552 | 33373 ft | 432 kts | 210° |
| 2026-05-05 15:35 | 34.38006 | -7.15182 | 33057 ft | 425 kts | 210° |
| 2026-05-05 15:36 | 34.35363 | -7.16816 | 32982 ft | 427 kts | 210° |
| 2026-05-05 15:36 | 34.30026 | -7.20118 | 32996 ft | 433 kts | 210° |
| 2026-05-05 15:36 | 34.27362 | -7.21761 | 32573 ft | 425 kts | 210° |
| 2026-05-05 15:37 | 34.24734 | -7.23380 | 31531 ft | 424 kts | 210° |
| 2026-05-05 15:37 | 34.22086 | -7.25014 | 30221 ft | 432 kts | 210° |
| 2026-05-05 15:37 | 34.19414 | -7.26660 | 28997 ft | 437 kts | 210° |
| 2026-05-05 15:37 | 34.16723 | -7.28313 | 28302 ft | 434 kts | 210° |
| 2026-05-05 15:38 | 34.14101 | -7.30164 | 27574 ft | 429 kts | 219° |
| 2026-05-05 15:38 | 34.11937 | -7.32639 | 26961 ft | 431 kts | 232° |
| 2026-05-05 15:38 | 34.10188 | -7.35545 | 26876 ft | 438 kts | 240° |
| 2026-05-05 15:38 | 34.09260 | -7.37778 | 26749 ft | 443 kts | 247° |
| 2026-05-05 15:39 | 34.07909 | -7.41610 | 26569 ft | 449 kts | 248° |
| 2026-05-05 15:39 | 34.06723 | -7.45028 | 26371 ft | 431 kts | 248° |
| 2026-05-05 15:39 | 34.05585 | -7.48277 | 26190 ft | 410 kts | 248° |
| 2026-05-05 15:39 | 34.04491 | -7.51361 | 26034 ft | 391 kts | 247° |
| 2026-05-05 15:40 | 34.03435 | -7.54304 | 25876 ft | 374 kts | 247° |
| 2026-05-05 15:40 | 34.02418 | -7.57120 | 25751 ft | 359 kts | 247° |
| 2026-05-05 15:40 | 34.01430 | -7.59851 | 25613 ft | 355 kts | 247° |
| 2026-05-05 15:40 | 34.00436 | -7.62595 | 25330 ft | 357 kts | 247° |
| 2026-05-05 15:41 | 33.99454 | -7.65302 | 24933 ft | 349 kts | 247° |
| 2026-05-05 15:41 | 33.98495 | -7.67945 | 24555 ft | 340 kts | 247° |
| 2026-05-05 15:41 | 33.97561 | -7.70513 | 24265 ft | 329 kts | 247° |
| 2026-05-05 15:41 | 33.96585 | -7.72938 | 24071 ft | 314 kts | 240° |
| 2026-05-05 15:42 | 33.95347 | -7.75055 | 23702 ft | 309 kts | 232° |
| 2026-05-05 15:42 | 33.93945 | -7.77020 | 23153 ft | 308 kts | 231° |
| 2026-05-05 15:42 | 33.92533 | -7.78954 | 22601 ft | 307 kts | 231° |
| 2026-05-05 15:42 | 33.91132 | -7.80879 | 22053 ft | 305 kts | 231° |
| 2026-05-05 15:43 | 33.89733 | -7.82819 | 21280 ft | 309 kts | 231° |
| 2026-05-05 15:43 | 33.88321 | -7.84790 | 20557 ft | 312 kts | 231° |
| 2026-05-05 15:43 | 33.86905 | -7.86773 | 19839 ft | 314 kts | 231° |
| 2026-05-05 15:43 | 33.85494 | -7.88749 | 19140 ft | 316 kts | 232° |
| 2026-05-05 15:44 | 33.84054 | -7.90749 | 18458 ft | 317 kts | 228° |
| 2026-05-05 15:44 | 33.82218 | -7.92239 | 17767 ft | 324 kts | 206° |
| 2026-05-05 15:44 | 33.80029 | -7.92920 | 17130 ft | 328 kts | 192° |
| 2026-05-05 15:44 | 33.77734 | -7.92956 | 16495 ft | 333 kts | 178° |
| 2026-05-05 15:45 | 33.75474 | -7.92301 | 15870 ft | 338 kts | 162° |
| 2026-05-05 15:45 | 33.73426 | -7.90881 | 15258 ft | 344 kts | 144° |
| 2026-05-05 15:45 | 33.71817 | -7.88749 | 14657 ft | 348 kts | 125° |
| 2026-05-05 15:45 | 33.70826 | -7.86094 | 14064 ft | 350 kts | 105° |
| 2026-05-05 15:46 | 33.70561 | -7.83206 | 13447 ft | 349 kts | 87° |
| 2026-05-05 15:46 | 33.71031 | -7.80367 | 12800 ft | 346 kts | 68° |
| 2026-05-05 15:46 | 33.72176 | -7.77870 | 12275 ft | 338 kts | 50° |
| 2026-05-05 15:46 | 33.73819 | -7.75975 | 12108 ft | 318 kts | 32° |
| 2026-05-05 15:47 | 33.75712 | -7.74776 | 11920 ft | 300 kts | 17° |
| 2026-05-05 15:47 | 33.77014 | -7.74282 | 11669 ft | 294 kts | 10° |
| 2026-05-05 15:47 | 33.79681 | -7.74000 | 11217 ft | 283 kts | 350° |
| 2026-05-05 15:47 | 33.81605 | -7.74416 | 10898 ft | 280 kts | 346° |
| 2026-05-05 15:48 | 33.83530 | -7.74776 | 10547 ft | 282 kts | 357° |
| 2026-05-05 15:48 | 33.85476 | -7.74447 | 10221 ft | 282 kts | 9° |
| 2026-05-05 15:48 | 33.87386 | -7.73962 | 9888 ft | 280 kts | 9° |
| 2026-05-05 15:48 | 33.88651 | -7.73656 | 9643 ft | 279 kts | 8° |
| 2026-05-05 15:49 | 33.90553 | -7.73221 | 9286 ft | 277 kts | 7° |
| 2026-05-05 15:49 | 33.93070 | -7.72678 | 8807 ft | 276 kts | 7° |
| 2026-05-05 15:49 | 33.94345 | -7.72409 | 8550 ft | 276 kts | 6° |
| 2026-05-05 15:49 | 33.96853 | -7.71882 | 8093 ft | 276 kts | 7° |
| 2026-05-05 15:50 | 33.98738 | -7.71854 | 7724 ft | 270 kts | 342° |
| 2026-05-05 15:50 | 33.99891 | -7.72432 | 7504 ft | 265 kts | 324° |
| 2026-05-05 15:50 | 34.01241 | -7.73890 | 7179 ft | 259 kts | 305° |
| 2026-05-05 15:50 | 34.02058 | -7.75793 | 7052 ft | 255 kts | 286° |
| 2026-05-05 15:51 | 34.02245 | -7.77897 | 7012 ft | 254 kts | 262° |
| 2026-05-05 15:51 | 34.01742 | -7.79940 | 7006 ft | 256 kts | 244° |
| 2026-05-05 15:51 | 34.00706 | -7.81671 | 6996 ft | 255 kts | 225° |
| 2026-05-05 15:51 | 33.99377 | -7.83058 | 7005 ft | 258 kts | 220° |
| 2026-05-05 15:52 | 33.97968 | -7.84428 | 7008 ft | 260 kts | 220° |
| 2026-05-05 15:52 | 33.96556 | -7.85795 | 7004 ft | 261 kts | 219° |
| 2026-05-05 15:52 | 33.94947 | -7.86797 | 6989 ft | 264 kts | 195° |
| 2026-05-05 15:52 | 33.93106 | -7.86854 | 7001 ft | 269 kts | 172° |
| 2026-05-05 15:53 | 33.91369 | -7.86008 | 6996 ft | 274 kts | 148° |
| 2026-05-05 15:53 | 33.90054 | -7.84339 | 6993 ft | 279 kts | 122° |
| 2026-05-05 15:53 | 33.89479 | -7.82112 | 6990 ft | 283 kts | 93° |
| 2026-05-05 15:53 | 33.89809 | -7.79798 | 6999 ft | 282 kts | 65° |
| 2026-05-05 15:54 | 33.90918 | -7.77883 | 7005 ft | 280 kts | 41° |
| 2026-05-05 15:54 | 33.92406 | -7.76376 | 7008 ft | 280 kts | 37° |
| 2026-05-05 15:54 | 33.93929 | -7.74910 | 7005 ft | 281 kts | 37° |
| 2026-05-05 15:54 | 33.95455 | -7.73427 | 7005 ft | 283 kts | 37° |
| 2026-05-05 15:55 | 33.96984 | -7.71926 | 6998 ft | 284 kts | 37° |
| 2026-05-05 15:55 | 33.98694 | -7.70799 | 6990 ft | 279 kts | 10° |
| 2026-05-05 15:55 | 34.00581 | -7.70769 | 7007 ft | 270 kts | 343° |
| 2026-05-05 15:55 | 34.02245 | -7.71722 | 7002 ft | 264 kts | 318° |
| 2026-05-05 15:56 | 34.03408 | -7.73401 | 7004 ft | 260 kts | 295° |
| 2026-05-05 15:56 | 34.03886 | -7.75480 | 7009 ft | 258 kts | 271° |
| 2026-05-05 15:56 | 34.03613 | -7.77598 | 7012 ft | 257 kts | 249° |
| 2026-05-05 15:56 | 34.02704 | -7.79439 | 7004 ft | 258 kts | 227° |
| 2026-05-05 15:57 | 34.01359 | -7.80867 | 7009 ft | 258 kts | 221° |
| 2026-05-05 15:57 | 33.99963 | -7.82237 | 6997 ft | 259 kts | 220° |
| 2026-05-05 15:57 | 33.98584 | -7.83588 | 6996 ft | 259 kts | 220° |
| 2026-05-05 15:57 | 33.97186 | -7.84963 | 7003 ft | 259 kts | 220° |
| 2026-05-05 15:58 | 33.95749 | -7.86274 | 6986 ft | 261 kts | 210° |
| 2026-05-05 15:58 | 33.93995 | -7.86822 | 7006 ft | 265 kts | 183° |
| 2026-05-05 15:58 | 33.92175 | -7.86417 | 6997 ft | 271 kts | 159° |
| 2026-05-05 15:58 | 33.90617 | -7.85120 | 7007 ft | 277 kts | 134° |
| 2026-05-05 15:59 | 33.89658 | -7.83100 | 6994 ft | 283 kts | 107° |
| 2026-05-05 15:59 | 33.89567 | -7.80741 | 7001 ft | 285 kts | 78° |
| 2026-05-05 15:59 | 33.90383 | -7.78604 | 7008 ft | 283 kts | 51° |
| 2026-05-05 15:59 | 33.91789 | -7.76969 | 7013 ft | 282 kts | 37° |
| 2026-05-05 16:00 | 33.93323 | -7.75489 | 7002 ft | 283 kts | 37° |
| 2026-05-05 16:00 | 33.94862 | -7.74003 | 6998 ft | 284 kts | 37° |
| 2026-05-05 16:00 | 33.96395 | -7.72502 | 6995 ft | 285 kts | 37° |
| 2026-05-05 16:00 | 33.97996 | -7.71109 | 6997 ft | 283 kts | 22° |
| 2026-05-05 16:01 | 33.99874 | -7.70647 | 7007 ft | 274 kts | 353° |
| 2026-05-05 16:01 | 34.01671 | -7.71234 | 7001 ft | 267 kts | 328° |
| 2026-05-05 16:01 | 34.03073 | -7.72652 | 7006 ft | 262 kts | 304° |
| 2026-05-05 16:01 | 34.03853 | -7.74598 | 7010 ft | 258 kts | 281° |
| 2026-05-05 16:02 | 34.03898 | -7.76738 | 6999 ft | 257 kts | 258° |
| 2026-05-05 16:02 | 34.03262 | -7.78740 | 7011 ft | 257 kts | 238° |
| 2026-05-05 16:02 | 34.02058 | -7.80335 | 7015 ft | 259 kts | 221° |
| 2026-05-05 16:02 | 34.00657 | -7.81720 | 7002 ft | 261 kts | 221° |
| 2026-05-05 16:03 | 33.99250 | -7.83096 | 6998 ft | 261 kts | 220° |
| 2026-05-05 16:03 | 33.97839 | -7.84480 | 7001 ft | 261 kts | 220° |
| 2026-05-05 16:03 | 33.96451 | -7.85845 | 6986 ft | 261 kts | 219° |
| 2026-05-05 16:03 | 33.94842 | -7.86843 | 6987 ft | 264 kts | 194° |
| 2026-05-05 16:04 | 33.93009 | -7.86868 | 7000 ft | 268 kts | 171° |
| 2026-05-05 16:04 | 33.91283 | -7.85981 | 7000 ft | 273 kts | 146° |
| 2026-05-05 16:04 | 33.89999 | -7.84288 | 6994 ft | 279 kts | 121° |
| 2026-05-05 16:04 | 33.89453 | -7.82043 | 6992 ft | 282 kts | 92° |
| 2026-05-05 16:05 | 33.89814 | -7.79738 | 6998 ft | 282 kts | 64° |
| 2026-05-05 16:05 | 33.90952 | -7.77841 | 7003 ft | 281 kts | 41° |
| 2026-05-05 16:05 | 33.92454 | -7.76332 | 7003 ft | 281 kts | 37° |
| 2026-05-05 16:05 | 33.93967 | -7.74874 | 7004 ft | 283 kts | 37° |
| 2026-05-05 16:06 | 33.95501 | -7.73381 | 6996 ft | 284 kts | 37° |
| 2026-05-05 16:06 | 33.97038 | -7.71873 | 6998 ft | 285 kts | 36° |
| 2026-05-05 16:06 | 33.98760 | -7.70758 | 6988 ft | 281 kts | 9° |
| 2026-05-05 16:06 | 34.00663 | -7.70761 | 6999 ft | 271 kts | 341° |
| 2026-05-05 16:07 | 34.02319 | -7.71730 | 7009 ft | 264 kts | 318° |
| 2026-05-05 16:07 | 34.03490 | -7.73414 | 7006 ft | 263 kts | 295° |
| 2026-05-05 16:07 | 34.03990 | -7.75511 | 7010 ft | 262 kts | 271° |
| 2026-05-05 16:07 | 34.03730 | -7.77655 | 7003 ft | 258 kts | 249° |
| 2026-05-05 16:08 | 34.02837 | -7.79500 | 6990 ft | 256 kts | 228° |
| 2026-05-05 16:08 | 34.01527 | -7.80948 | 7012 ft | 257 kts | 221° |
| 2026-05-05 16:08 | 34.00127 | -7.82310 | 7001 ft | 261 kts | 220° |
| 2026-05-05 16:08 | 33.98709 | -7.83683 | 7008 ft | 262 kts | 220° |
| 2026-05-05 16:09 | 33.97292 | -7.85067 | 6997 ft | 262 kts | 220° |
| 2026-05-05 16:09 | 33.95847 | -7.86400 | 6984 ft | 263 kts | 211° |
| 2026-05-05 16:09 | 33.94120 | -7.86999 | 6999 ft | 266 kts | 185° |
| 2026-05-05 16:09 | 33.92284 | -7.86654 | 6993 ft | 271 kts | 161° |
| 2026-05-05 16:10 | 33.90694 | -7.85430 | 6994 ft | 276 kts | 137° |
| 2026-05-05 16:10 | 33.89665 | -7.83472 | 6991 ft | 281 kts | 110° |
| 2026-05-05 16:10 | 33.89469 | -7.81136 | 6989 ft | 283 kts | 81° |
| 2026-05-05 16:10 | 33.90170 | -7.78950 | 6999 ft | 282 kts | 54° |
| 2026-05-05 16:11 | 33.91507 | -7.77255 | 7014 ft | 280 kts | 38° |
| 2026-05-05 16:11 | 33.96098 | -7.72796 | 6994 ft | 284 kts | 37° |
| 2026-05-05 16:12 | 33.97655 | -7.71339 | 6997 ft | 283 kts | 28° |
| 2026-05-05 16:12 | 34.01338 | -7.71040 | 7001 ft | 267 kts | 332° |
| 2026-05-05 16:13 | 34.03980 | -7.76258 | 7008 ft | 258 kts | 263° |
| 2026-05-05 16:13 | 34.03490 | -7.78325 | 6999 ft | 257 kts | 243° |
| 2026-05-05 16:13 | 34.02396 | -7.80027 | 7005 ft | 260 kts | 223° |
| 2026-05-05 16:14 | 33.99583 | -7.82821 | 7253 ft | 265 kts | 221° |
| 2026-05-05 16:14 | 33.96695 | -7.85661 | 8841 ft | 271 kts | 221° |
| 2026-05-05 16:15 | 33.93161 | -7.87048 | 9992 ft | 285 kts | 173° |
| 2026-05-05 16:15 | 33.89903 | -7.84415 | 10052 ft | 297 kts | 118° |
| 2026-05-05 16:16 | 33.89785 | -7.79635 | 10058 ft | 295 kts | 60° |
| 2026-05-05 16:16 | 33.92601 | -7.76176 | 10065 ft | 292 kts | 36° |
| 2026-05-05 16:17 | 33.95758 | -7.73126 | 10053 ft | 293 kts | 36° |
| 2026-05-05 16:17 | 33.97349 | -7.71582 | 10045 ft | 292 kts | 32° |
| 2026-05-05 16:18 | 34.01090 | -7.70756 | 10058 ft | 275 kts | 341° |
| 2026-05-05 16:18 | 34.02784 | -7.71787 | 10067 ft | 273 kts | 320° |
| 2026-05-05 16:18 | 34.04584 | -7.75705 | 10061 ft | 276 kts | 275° |
| 2026-05-05 16:19 | 34.04363 | -7.77996 | 10063 ft | 278 kts | 251° |
| 2026-05-05 16:19 | 34.03429 | -7.80033 | 10056 ft | 282 kts | 229° |
| 2026-05-05 16:19 | 34.00444 | -7.83120 | 10061 ft | 283 kts | 221° |
| 2026-05-05 16:20 | 33.97385 | -7.86107 | 10052 ft | 282 kts | 220° |
| 2026-05-05 16:20 | 33.93888 | -7.87942 | 10052 ft | 284 kts | 181° |
| 2026-05-05 16:21 | 33.90315 | -7.86006 | 10061 ft | 296 kts | 131° |
| 2026-05-05 16:22 | 33.89998 | -7.79078 | 10065 ft | 296 kts | 52° |
| 2026-05-05 16:22 | 33.93016 | -7.75785 | 10057 ft | 293 kts | 36° |
| 2026-05-05 16:23 | 33.96192 | -7.72702 | 10045 ft | 292 kts | 36° |
| 2026-05-05 16:23 | 33.97804 | -7.71220 | 10051 ft | 289 kts | 26° |
| 2026-05-05 16:23 | 34.01566 | -7.70988 | 10060 ft | 276 kts | 335° |
| 2026-05-05 16:24 | 34.03149 | -7.72255 | 10060 ft | 275 kts | 312° |
| 2026-05-05 16:24 | 34.04174 | -7.74142 | 10058 ft | 275 kts | 290° |
| 2026-05-05 16:24 | 34.03987 | -7.78654 | 10065 ft | 277 kts | 245° |
| 2026-05-05 16:25 | 34.02840 | -7.80482 | 10059 ft | 280 kts | 223° |
| 2026-05-05 16:25 | 33.99820 | -7.83475 | 10054 ft | 282 kts | 221° |
| 2026-05-05 16:25 | 33.98293 | -7.84970 | 10056 ft | 282 kts | 221° |
| 2026-05-05 16:26 | 33.95046 | -7.87580 | 10047 ft | 285 kts | 196° |
| 2026-05-05 16:26 | 33.91202 | -7.86779 | 10047 ft | 293 kts | 146° |
| 2026-05-05 16:27 | 33.89810 | -7.84994 | 10044 ft | 295 kts | 120° |
| 2026-05-05 16:27 | 33.89203 | -7.82652 | 10052 ft | 295 kts | 92° |
| 2026-05-05 16:27 | 33.89511 | -7.80242 | 10053 ft | 292 kts | 65° |
| 2026-05-05 16:27 | 33.90605 | -7.78222 | 10056 ft | 288 kts | 42° |
| 2026-05-05 16:28 | 33.92114 | -7.76657 | 10064 ft | 287 kts | 36° |
| 2026-05-05 16:28 | 33.93682 | -7.75148 | 10054 ft | 289 kts | 36° |
| 2026-05-05 16:28 | 33.95250 | -7.73626 | 10054 ft | 290 kts | 36° |
| 2026-05-05 16:28 | 33.96819 | -7.72086 | 10051 ft | 291 kts | 36° |
| 2026-05-05 16:29 | 33.98531 | -7.70829 | 10044 ft | 287 kts | 14° |
| 2026-05-05 16:29 | 34.00455 | -7.70611 | 10059 ft | 281 kts | 350° |
| 2026-05-05 16:29 | 34.02286 | -7.71365 | 10060 ft | 277 kts | 327° |
| 2026-05-05 16:29 | 34.03697 | -7.72903 | 10060 ft | 274 kts | 304° |
| 2026-05-05 16:30 | 34.04476 | -7.74979 | 10054 ft | 274 kts | 281° |
| 2026-05-05 16:30 | 34.04496 | -7.77253 | 10058 ft | 274 kts | 258° |
| 2026-05-05 16:30 | 34.03785 | -7.79381 | 10058 ft | 276 kts | 238° |
| 2026-05-05 16:30 | 34.02484 | -7.81081 | 10068 ft | 278 kts | 222° |
| 2026-05-05 16:31 | 34.00982 | -7.82558 | 10060 ft | 279 kts | 221° |
| 2026-05-05 16:31 | 33.99468 | -7.84028 | 10061 ft | 280 kts | 221° |
| 2026-05-05 16:31 | 33.97948 | -7.85514 | 10058 ft | 281 kts | 221° |
| 2026-05-05 16:31 | 33.96422 | -7.86986 | 10050 ft | 282 kts | 215° |
| 2026-05-05 16:32 | 33.94625 | -7.87855 | 10051 ft | 286 kts | 191° |
| 2026-05-05 16:32 | 33.92636 | -7.87717 | 10053 ft | 291 kts | 166° |
| 2026-05-05 16:32 | 33.90839 | -7.86601 | 10047 ft | 294 kts | 141° |
| 2026-05-05 16:32 | 33.89588 | -7.84665 | 10044 ft | 296 kts | 114° |
| 2026-05-05 16:33 | 33.89155 | -7.82258 | 10048 ft | 295 kts | 87° |
| 2026-05-05 16:33 | 33.89618 | -7.79919 | 10051 ft | 292 kts | 61° |
| 2026-05-05 16:33 | 33.90807 | -7.77985 | 10054 ft | 288 kts | 40° |
| 2026-05-05 16:33 | 33.92341 | -7.76444 | 10063 ft | 288 kts | 36° |
| 2026-05-05 16:34 | 33.93907 | -7.74933 | 10058 ft | 289 kts | 36° |
| 2026-05-05 16:34 | 33.95478 | -7.73404 | 10054 ft | 291 kts | 36° |
| 2026-05-05 16:34 | 33.97047 | -7.71865 | 10051 ft | 291 kts | 35° |
| 2026-05-05 16:34 | 33.98809 | -7.70734 | 10030 ft | 286 kts | 10° |
| 2026-05-05 16:35 | 34.00757 | -7.70670 | 10055 ft | 280 kts | 347° |
| 2026-05-05 16:35 | 34.02535 | -7.71552 | 10055 ft | 276 kts | 324° |
| 2026-05-05 16:35 | 34.03864 | -7.73186 | 10057 ft | 273 kts | 301° |
| 2026-05-05 16:35 | 34.04537 | -7.75308 | 10059 ft | 272 kts | 278° |
| 2026-05-05 16:36 | 34.04564 | -7.76817 | 10045 ft | 273 kts | 263° |
| 2026-05-05 16:36 | 34.03987 | -7.78991 | 10057 ft | 275 kts | 242° |
| 2026-05-05 16:36 | 34.02783 | -7.80778 | 10066 ft | 277 kts | 222° |
| 2026-05-05 16:36 | 34.01293 | -7.82267 | 10059 ft | 279 kts | 221° |
| 2026-05-05 16:37 | 33.99779 | -7.83744 | 10061 ft | 280 kts | 221° |
| 2026-05-05 16:37 | 33.98263 | -7.85228 | 10058 ft | 281 kts | 220° |
| 2026-05-05 16:37 | 33.96737 | -7.86725 | 10053 ft | 283 kts | 219° |
| 2026-05-05 16:37 | 33.94985 | -7.87786 | 10046 ft | 286 kts | 194° |
| 2026-05-05 16:38 | 33.92997 | -7.87838 | 10048 ft | 290 kts | 170° |
| 2026-05-05 16:38 | 33.91137 | -7.86895 | 10046 ft | 294 kts | 146° |
| 2026-05-05 16:38 | 33.89758 | -7.85085 | 10046 ft | 296 kts | 119° |
| 2026-05-05 16:38 | 33.89160 | -7.82733 | 10049 ft | 296 kts | 92° |
| 2026-05-05 16:39 | 33.89461 | -7.80345 | 10050 ft | 292 kts | 65° |
| 2026-05-05 16:39 | 33.90557 | -7.78281 | 10058 ft | 288 kts | 42° |
| 2026-05-05 16:39 | 33.92042 | -7.76735 | 10065 ft | 287 kts | 37° |
| 2026-05-05 16:39 | 33.93605 | -7.75227 | 10053 ft | 289 kts | 37° |
| 2026-05-05 16:40 | 33.95172 | -7.73705 | 10048 ft | 290 kts | 37° |
| 2026-05-05 16:40 | 33.96738 | -7.72168 | 10049 ft | 290 kts | 37° |
| 2026-05-05 16:40 | 33.98429 | -7.70869 | 10015 ft | 288 kts | 16° |
| 2026-05-05 16:40 | 34.00371 | -7.70610 | 10055 ft | 280 kts | 351° |
| 2026-05-05 16:41 | 34.02190 | -7.71338 | 10059 ft | 275 kts | 327° |
| 2026-05-05 16:41 | 34.03609 | -7.72868 | 10051 ft | 274 kts | 304° |
| 2026-05-05 16:41 | 34.04394 | -7.74941 | 10060 ft | 274 kts | 281° |
| 2026-05-05 16:41 | 34.04415 | -7.77221 | 10057 ft | 275 kts | 258° |
| 2026-05-05 16:42 | 34.03690 | -7.79346 | 10065 ft | 277 kts | 238° |
| 2026-05-05 16:42 | 34.02383 | -7.81063 | 10069 ft | 280 kts | 222° |
| 2026-05-05 16:42 | 34.00872 | -7.82552 | 10059 ft | 281 kts | 221° |
| 2026-05-05 16:42 | 33.99357 | -7.84004 | 10052 ft | 282 kts | 221° |
| 2026-05-05 16:43 | 33.97833 | -7.85482 | 10053 ft | 282 kts | 220° |
| 2026-05-05 16:43 | 33.96293 | -7.86945 | 10038 ft | 283 kts | 215° |
| 2026-05-05 16:43 | 33.94456 | -7.87755 | 10050 ft | 284 kts | 188° |
| 2026-05-05 16:43 | 33.92490 | -7.87539 | 10047 ft | 288 kts | 164° |
| 2026-05-05 16:44 | 33.90738 | -7.86358 | 10057 ft | 294 kts | 139° |
| 2026-05-05 16:44 | 33.89539 | -7.84371 | 10055 ft | 298 kts | 112° |
| 2026-05-05 16:44 | 33.89181 | -7.81929 | 10053 ft | 298 kts | 84° |
| 2026-05-05 16:44 | 33.89762 | -7.79562 | 10057 ft | 295 kts | 58° |
| 2026-05-05 16:45 | 33.91078 | -7.77698 | 10058 ft | 291 kts | 37° |
| 2026-05-05 16:45 | 33.92651 | -7.76157 | 10055 ft | 292 kts | 36° |
| 2026-05-05 16:45 | 33.94235 | -7.74622 | 10051 ft | 292 kts | 37° |
| 2026-05-05 16:45 | 33.95813 | -7.73079 | 10045 ft | 293 kts | 37° |
| 2026-05-05 16:46 | 33.97378 | -7.71559 | 10046 ft | 291 kts | 32° |
| 2026-05-05 16:46 | 33.99226 | -7.70627 | 10043 ft | 282 kts | 4° |
| 2026-05-05 16:46 | 34.01113 | -7.70786 | 10056 ft | 276 kts | 341° |
| 2026-05-05 16:46 | 34.02794 | -7.71846 | 10063 ft | 274 kts | 319° |
| 2026-05-05 16:47 | 34.03999 | -7.73619 | 10062 ft | 276 kts | 296° |
| 2026-05-05 16:47 | 34.04519 | -7.75841 | 10061 ft | 279 kts | 272° |
| 2026-05-05 16:47 | 34.04227 | -7.78140 | 10066 ft | 279 kts | 250° |
| 2026-05-05 16:47 | 34.03226 | -7.80114 | 10053 ft | 278 kts | 228° |
| 2026-05-05 16:48 | 34.01776 | -7.81656 | 10055 ft | 279 kts | 221° |
| 2026-05-05 16:48 | 34.00263 | -7.83125 | 10048 ft | 279 kts | 220° |
| 2026-05-05 16:48 | 33.98752 | -7.84594 | 10051 ft | 279 kts | 220° |
| 2026-05-05 16:48 | 33.97242 | -7.86072 | 10051 ft | 280 kts | 222° |
| 2026-05-05 16:49 | 33.95632 | -7.87386 | 10028 ft | 283 kts | 204° |
| 2026-05-05 16:49 | 33.93697 | -7.87798 | 10049 ft | 287 kts | 180° |
| 2026-05-05 16:49 | 33.91758 | -7.87210 | 10047 ft | 292 kts | 155° |
| 2026-05-05 16:49 | 33.90175 | -7.85687 | 10041 ft | 295 kts | 128° |
| 2026-05-05 16:50 | 33.89286 | -7.83474 | 10044 ft | 296 kts | 101° |
| 2026-05-05 16:50 | 33.89294 | -7.81028 | 10054 ft | 294 kts | 74° |
| 2026-05-05 16:50 | 33.90163 | -7.78839 | 10058 ft | 290 kts | 50° |
| 2026-05-05 16:50 | 33.91599 | -7.77157 | 10063 ft | 288 kts | 36° |
| 2026-05-05 16:51 | 33.93166 | -7.75642 | 10052 ft | 289 kts | 36° |
| 2026-05-05 16:51 | 33.94737 | -7.74125 | 10048 ft | 290 kts | 36° |
| 2026-05-05 16:51 | 33.96307 | -7.72589 | 10045 ft | 291 kts | 37° |
| 2026-05-05 16:51 | 33.97936 | -7.71151 | 10050 ft | 288 kts | 23° |
| 2026-05-05 16:52 | 33.99820 | -7.70761 | 10063 ft | 277 kts | 349° |
| 2026-05-05 16:52 | 34.01704 | -7.71221 | 10062 ft | 277 kts | 350° |
| 2026-05-05 16:52 | 34.03617 | -7.71476 | 10060 ft | 275 kts | 353° |
| 2026-05-05 16:52 | 34.05493 | -7.71726 | 10045 ft | 267 kts | 351° |
| 2026-05-05 16:53 | 34.07325 | -7.71996 | 10058 ft | 265 kts | 350° |
| 2026-05-05 16:53 | 34.09193 | -7.72285 | 10286 ft | 277 kts | 351° |
| 2026-05-05 16:53 | 34.11119 | -7.72587 | 11008 ft | 280 kts | 351° |
| 2026-05-05 16:53 | 34.13045 | -7.72892 | 11811 ft | 277 kts | 351° |
| 2026-05-05 16:54 | 34.14963 | -7.73200 | 12529 ft | 278 kts | 350° |
| 2026-05-05 16:54 | 34.16907 | -7.73512 | 13115 ft | 285 kts | 349° |
| 2026-05-05 16:54 | 34.18448 | -7.73760 | 13623 ft | 287 kts | 350° |
| 2026-05-05 16:54 | 34.20446 | -7.73989 | 14248 ft | 290 kts | 353° |
| 2026-05-05 16:55 | 34.22482 | -7.74136 | 14785 ft | 295 kts | 353° |
| 2026-05-05 16:55 | 34.24549 | -7.74280 | 15355 ft | 298 kts | 354° |
| 2026-05-05 16:55 | 34.26633 | -7.74437 | 15925 ft | 302 kts | 353° |
| 2026-05-05 16:55 | 34.28749 | -7.74591 | 16152 ft | 319 kts | 353° |
| 2026-05-05 16:56 | 34.31072 | -7.74751 | 16181 ft | 340 kts | 354° |
| 2026-05-05 16:56 | 34.33480 | -7.74914 | 16183 ft | 361 kts | 354° |
| 2026-05-05 16:56 | 34.36060 | -7.75087 | 16174 ft | 380 kts | 354° |
| 2026-05-05 16:56 | 34.38715 | -7.75264 | 16158 ft | 378 kts | 354° |
| 2026-05-05 16:57 | 34.41292 | -7.75433 | 16133 ft | 363 kts | 354° |
| 2026-05-05 16:57 | 34.43762 | -7.75596 | 16138 ft | 347 kts | 354° |
| 2026-05-05 16:57 | 34.46121 | -7.75754 | 16138 ft | 332 kts | 354° |
| 2026-05-05 16:57 | 34.48385 | -7.75908 | 16132 ft | 319 kts | 354° |
| 2026-05-05 16:58 | 34.50552 | -7.76056 | 16147 ft | 305 kts | 354° |
| 2026-05-05 16:58 | 34.52626 | -7.76199 | 16128 ft | 293 kts | 353° |
| 2026-05-05 16:58 | 34.54630 | -7.76339 | 16117 ft | 285 kts | 354° |
| 2026-05-05 16:58 | 34.56585 | -7.76475 | 16115 ft | 280 kts | 353° |
| 2026-05-05 16:59 | 34.58554 | -7.76614 | 16181 ft | 290 kts | 354° |
| 2026-05-05 16:59 | 34.60644 | -7.76763 | 16351 ft | 311 kts | 354° |
| 2026-05-05 16:59 | 34.62878 | -7.76921 | 16519 ft | 333 kts | 354° |
| 2026-05-05 16:59 | 34.65262 | -7.77087 | 16675 ft | 353 kts | 354° |
| 2026-05-05 17:00 | 34.67788 | -7.77262 | 16813 ft | 373 kts | 354° |
| 2026-05-05 17:00 | 34.70402 | -7.77423 | 16964 ft | 391 kts | 358° |
| 2026-05-05 17:00 | 34.73176 | -7.76827 | 17059 ft | 414 kts | 20° |
| 2026-05-05 17:00 | 34.75667 | -7.74949 | 17287 ft | 431 kts | 40° |
| 2026-05-05 17:01 | 34.77550 | -7.72148 | 17831 ft | 436 kts | 53° |
| 2026-05-05 17:01 | 34.79267 | -7.69088 | 18379 ft | 438 kts | 54° |
| 2026-05-05 17:01 | 34.80979 | -7.65994 | 18790 ft | 443 kts | 54° |
| 2026-05-05 17:01 | 34.82705 | -7.62872 | 19161 ft | 447 kts | 54° |
| 2026-05-05 17:02 | 34.84456 | -7.59725 | 19547 ft | 451 kts | 54° |
| 2026-05-05 17:02 | 34.86234 | -7.56550 | 19910 ft | 456 kts | 53° |
| 2026-05-05 17:02 | 34.88036 | -7.53350 | 20284 ft | 460 kts | 53° |
| 2026-05-05 17:02 | 34.89850 | -7.50138 | 20679 ft | 463 kts | 54° |
| 2026-05-05 17:03 | 34.91678 | -7.46903 | 21053 ft | 466 kts | 54° |
| 2026-05-05 17:03 | 34.93524 | -7.43636 | 21402 ft | 470 kts | 54° |
| 2026-05-05 17:03 | 34.95387 | -7.40337 | 21755 ft | 473 kts | 54° |
| 2026-05-05 17:03 | 34.97258 | -7.37020 | 22102 ft | 477 kts | 54° |
| 2026-05-05 17:04 | 34.99146 | -7.33667 | 22429 ft | 480 kts | 54° |
| 2026-05-05 17:04 | 35.00874 | -7.30597 | 22730 ft | 483 kts | 54° |
| 2026-05-05 17:04 | 35.02777 | -7.27210 | 23035 ft | 486 kts | 54° |
| 2026-05-05 17:04 | 35.04699 | -7.23787 | 23253 ft | 491 kts | 54° |
| 2026-05-05 17:05 | 35.06632 | -7.20343 | 23629 ft | 493 kts | 54° |
| 2026-05-05 17:05 | 35.08568 | -7.16889 | 23929 ft | 495 kts | 54° |
| 2026-05-05 17:05 | 35.10513 | -7.13415 | 24260 ft | 496 kts | 54° |
| 2026-05-05 17:05 | 35.12464 | -7.09925 | 24597 ft | 498 kts | 54° |
| 2026-05-05 17:06 | 35.14419 | -7.06426 | 24893 ft | 500 kts | 54° |
| 2026-05-05 17:06 | 35.16382 | -7.02909 | 25185 ft | 502 kts | 54° |
| 2026-05-05 17:06 | 35.18348 | -6.99384 | 25469 ft | 504 kts | 55° |
| 2026-05-05 17:06 | 35.20329 | -6.95829 | 25746 ft | 506 kts | 55° |
| 2026-05-05 17:07 | 35.22288 | -6.92309 | 26018 ft | 508 kts | 55° |
| 2026-05-05 17:07 | 35.24277 | -6.88731 | 26362 ft | 508 kts | 55° |
| 2026-05-05 17:07 | 35.26256 | -6.85166 | 26783 ft | 506 kts | 55° |
| 2026-05-05 17:07 | 35.28234 | -6.81600 | 27216 ft | 505 kts | 55° |
| 2026-05-05 17:08 | 35.30202 | -6.78051 | 27654 ft | 504 kts | 55° |
| 2026-05-05 17:08 | 35.32166 | -6.74504 | 28071 ft | 503 kts | 55° |
| 2026-05-05 17:08 | 35.33951 | -6.70806 | 28360 ft | 506 kts | 63° |
| 2026-05-05 17:08 | 35.35295 | -6.66823 | 28742 ft | 506 kts | 72° |
| 2026-05-05 17:09 | 35.36159 | -6.62655 | 29242 ft | 503 kts | 78° |
| 2026-05-05 17:09 | 35.36894 | -6.58548 | 29752 ft | 501 kts | 78° |
| 2026-05-05 17:09 | 35.37626 | -6.54382 | 30183 ft | 500 kts | 78° |
| 2026-05-05 17:09 | 35.38365 | -6.50218 | 30516 ft | 500 kts | 78° |
| 2026-05-05 17:10 | 35.39117 | -6.46051 | 30850 ft | 500 kts | 78° |
| 2026-05-05 17:10 | 35.39888 | -6.41836 | 31173 ft | 500 kts | 78° |
| 2026-05-05 17:10 | 35.40658 | -6.37679 | 31521 ft | 499 kts | 78° |
| 2026-05-05 17:10 | 35.41426 | -6.33541 | 31898 ft | 498 kts | 78° |
| 2026-05-05 17:11 | 35.42193 | -6.29409 | 32269 ft | 497 kts | 78° |
| 2026-05-05 17:11 | 35.42960 | -6.25274 | 32624 ft | 496 kts | 78° |
| 2026-05-05 17:11 | 35.43723 | -6.21142 | 32959 ft | 496 kts | 78° |
| 2026-05-05 17:11 | 35.44475 | -6.17064 | 33293 ft | 495 kts | 78° |
| 2026-05-05 17:12 | 35.45241 | -6.12894 | 33653 ft | 495 kts | 78° |
| 2026-05-05 17:12 | 35.45985 | -6.08835 | 33994 ft | 494 kts | 78° |
| 2026-05-05 17:12 | 35.46736 | -6.04725 | 34202 ft | 495 kts | 78° |
| 2026-05-05 17:12 | 35.47491 | -6.00585 | 34369 ft | 498 kts | 78° |
| 2026-05-05 17:13 | 35.48247 | -5.96434 | 34627 ft | 498 kts | 78° |
| 2026-05-05 17:13 | 35.49001 | -5.92289 | 34935 ft | 497 kts | 78° |
| 2026-05-05 17:13 | 35.49753 | -5.88144 | 35191 ft | 497 kts | 78° |
| 2026-05-05 17:13 | 35.50502 | -5.84005 | 35399 ft | 498 kts | 78° |
| 2026-05-05 17:14 | 35.51253 | -5.79846 | 35617 ft | 499 kts | 78° |
| 2026-05-05 17:14 | 35.52002 | -5.75691 | 35871 ft | 499 kts | 78° |
| 2026-05-05 17:14 | 35.52752 | -5.71524 | 36142 ft | 498 kts | 78° |
| 2026-05-05 17:14 | 35.53487 | -5.67430 | 36438 ft | 496 kts | 78° |
| 2026-05-05 17:15 | 35.54227 | -5.63295 | 36682 ft | 496 kts | 78° |
| 2026-05-05 17:15 | 35.54970 | -5.59144 | 36882 ft | 497 kts | 78° |
| 2026-05-05 17:15 | 35.55709 | -5.54995 | 36991 ft | 498 kts | 78° |
| 2026-05-05 17:15 | 35.56449 | -5.50837 | 36979 ft | 499 kts | 78° |
| 2026-05-05 17:16 | 35.57925 | -5.42523 | 36988 ft | 496 kts | 78° |
| 2026-05-05 17:16 | 35.59379 | -5.34255 | 36986 ft | 494 kts | 80° |
| 2026-05-05 17:17 | 35.59776 | -5.25914 | 37008 ft | 488 kts | 95° |
| 2026-05-05 17:17 | 35.59451 | -5.17583 | 36985 ft | 488 kts | 95° |
| 2026-05-05 17:18 | 35.59119 | -5.09241 | 36985 ft | 490 kts | 95° |
| 2026-05-05 17:18 | 35.58828 | -5.00869 | 36975 ft | 492 kts | 95° |
| 2026-05-05 17:19 | 35.58554 | -4.92456 | 36951 ft | 494 kts | 95° |
| 2026-05-05 17:19 | 35.58277 | -4.84045 | 36963 ft | 496 kts | 95° |
| 2026-05-05 17:20 | 35.57991 | -4.75562 | 36966 ft | 498 kts | 95° |
| 2026-05-05 17:20 | 35.57695 | -4.67053 | 36966 ft | 499 kts | 95° |
| 2026-05-05 17:21 | 35.57445 | -4.59962 | 36968 ft | 499 kts | 95° |
| 2026-05-05 17:22 | 35.56982 | -4.47168 | 36969 ft | 500 kts | 95° |
| 2026-05-05 17:22 | 35.56666 | -4.38647 | 36974 ft | 500 kts | 95° |
| 2026-05-05 17:23 | 35.56344 | -4.30122 | 36961 ft | 499 kts | 95° |
| 2026-05-05 17:23 | 35.56015 | -4.21599 | 36969 ft | 499 kts | 95° |
| 2026-05-05 17:24 | 35.55682 | -4.13089 | 36961 ft | 498 kts | 95° |
| 2026-05-05 17:24 | 35.55343 | -4.04593 | 36965 ft | 498 kts | 95° |
| 2026-05-05 17:25 | 35.54998 | -3.96099 | 36968 ft | 497 kts | 95° |
| 2026-05-05 17:25 | 35.54648 | -3.87628 | 36968 ft | 497 kts | 95° |
| 2026-05-05 17:26 | 35.54292 | -3.79148 | 36966 ft | 497 kts | 95° |
| 2026-05-05 17:26 | 35.53930 | -3.70678 | 36958 ft | 497 kts | 95° |
| 2026-05-05 17:27 | 35.53563 | -3.62248 | 36949 ft | 497 kts | 95° |
| 2026-05-05 17:27 | 35.53189 | -3.53767 | 36954 ft | 497 kts | 95° |
| 2026-05-05 17:28 | 35.52809 | -3.45280 | 36959 ft | 498 kts | 95° |
| 2026-05-05 17:28 | 35.52423 | -3.36799 | 36951 ft | 498 kts | 95° |
| 2026-05-05 17:29 | 35.52029 | -3.28296 | 36959 ft | 499 kts | 95° |
| 2026-05-05 17:29 | 35.51630 | -3.19787 | 36954 ft | 499 kts | 96° |
| 2026-05-05 17:30 | 35.51224 | -3.11268 | 36955 ft | 500 kts | 96° |
| 2026-05-05 17:30 | 35.50815 | -3.02800 | 36951 ft | 500 kts | 95° |
| 2026-05-05 17:31 | 35.50396 | -2.94264 | 36947 ft | 501 kts | 96° |
| 2026-05-05 17:31 | 35.49973 | -2.85734 | 36961 ft | 501 kts | 96° |
| 2026-05-05 17:32 | 35.49932 | -2.77182 | 36958 ft | 503 kts | 88° |
| 2026-05-05 17:32 | 35.50509 | -2.68604 | 36943 ft | 503 kts | 86° |
| 2026-05-05 17:33 | 35.51128 | -2.60042 | 36948 ft | 503 kts | 86° |
| 2026-05-05 17:33 | 35.51679 | -2.51486 | 36934 ft | 503 kts | 87° |
| 2026-05-05 17:34 | 35.52188 | -2.42912 | 36951 ft | 503 kts | 87° |
| 2026-05-05 17:34 | 35.52683 | -2.34348 | 36951 ft | 503 kts | 87° |
| 2026-05-05 17:35 | 35.53175 | -2.25768 | 36945 ft | 503 kts | 87° |
| 2026-05-05 17:35 | 35.53659 | -2.17269 | 36945 ft | 503 kts | 87° |
| 2026-05-05 17:36 | 35.54142 | -2.08703 | 36949 ft | 503 kts | 87° |
| 2026-05-05 17:36 | 35.54618 | -2.00143 | 36950 ft | 502 kts | 87° |
| 2026-05-05 17:37 | 35.55091 | -1.91523 | 36954 ft | 502 kts | 87° |
| 2026-05-05 17:37 | 35.55551 | -1.83017 | 36955 ft | 502 kts | 87° |
| 2026-05-05 17:38 | 35.56009 | -1.74459 | 36955 ft | 502 kts | 88° |
| 2026-05-05 17:38 | 35.56460 | -1.65897 | 36958 ft | 502 kts | 88° |
| 2026-05-05 17:39 | 35.56906 | -1.57325 | 36957 ft | 502 kts | 88° |
| 2026-05-05 17:39 | 35.57345 | -1.48763 | 36953 ft | 503 kts | 88° |
| 2026-05-05 17:40 | 35.57780 | -1.40183 | 36962 ft | 503 kts | 88° |
| 2026-05-05 17:40 | 35.58205 | -1.31657 | 36961 ft | 503 kts | 88° |
| 2026-05-05 17:41 | 35.58626 | -1.23084 | 36961 ft | 503 kts | 88° |
| 2026-05-05 17:41 | 35.59042 | -1.14503 | 36944 ft | 503 kts | 88° |
| 2026-05-05 17:42 | 35.59452 | -1.05924 | 36963 ft | 503 kts | 88° |
| 2026-05-05 17:42 | 35.59856 | -0.97336 | 36965 ft | 504 kts | 88° |
| 2026-05-05 17:43 | 35.60254 | -0.88742 | 36961 ft | 504 kts | 88° |
| 2026-05-05 17:43 | 35.60646 | -0.80148 | 36962 ft | 503 kts | 88° |
| 2026-05-05 17:44 | 35.61033 | -0.71560 | 36955 ft | 503 kts | 88° |
| 2026-05-05 17:44 | 35.62158 | -0.63154 | 36962 ft | 502 kts | 71° |
| 2026-05-05 17:45 | 35.64888 | -0.55292 | 36967 ft | 500 kts | 63° |
| 2026-05-05 17:45 | 35.67821 | -0.47528 | 36959 ft | 500 kts | 64° |
| 2026-05-05 17:46 | 35.70701 | -0.39734 | 36951 ft | 501 kts | 64° |
| 2026-05-05 17:46 | 35.73544 | -0.31901 | 36964 ft | 501 kts | 64° |
| 2026-05-05 17:47 | 35.76377 | -0.24056 | 36975 ft | 501 kts | 64° |
| 2026-05-05 17:47 | 35.79189 | -0.16259 | 36952 ft | 502 kts | 64° |
| 2026-05-05 17:48 | 35.82018 | -0.08401 | 36956 ft | 501 kts | 65° |
| 2026-05-05 17:48 | 35.84841 | -0.00542 | 36956 ft | 501 kts | 64° |
| 2026-05-05 17:49 | 35.87659 | 0.07324 | 36959 ft | 501 kts | 64° |
| 2026-05-05 17:49 | 35.90428 | 0.15203 | 36952 ft | 502 kts | 67° |
| 2026-05-05 17:50 | 35.92836 | 0.23300 | 36953 ft | 502 kts | 70° |
| 2026-05-05 17:50 | 35.95114 | 0.31446 | 36957 ft | 502 kts | 70° |
| 2026-05-05 17:51 | 35.97407 | 0.39572 | 36941 ft | 502 kts | 69° |
| 2026-05-05 17:51 | 35.99727 | 0.47690 | 36957 ft | 501 kts | 69° |
| 2026-05-05 17:52 | 36.02055 | 0.55812 | 36951 ft | 501 kts | 69° |
| 2026-05-05 17:52 | 36.04377 | 0.63937 | 36958 ft | 501 kts | 69° |
| 2026-05-05 17:53 | 36.06675 | 0.72009 | 36956 ft | 501 kts | 69° |
| 2026-05-05 17:53 | 36.08979 | 0.80131 | 36951 ft | 500 kts | 69° |
| 2026-05-05 17:54 | 36.11275 | 0.88250 | 36951 ft | 499 kts | 69° |
| 2026-05-05 17:54 | 36.13558 | 0.96347 | 36958 ft | 498 kts | 70° |
| 2026-05-05 17:55 | 36.15833 | 1.04437 | 36954 ft | 498 kts | 70° |
| 2026-05-05 17:55 | 36.18100 | 1.12523 | 36952 ft | 497 kts | 70° |
| 2026-05-05 17:56 | 36.20361 | 1.20615 | 36954 ft | 497 kts | 70° |
| 2026-05-05 17:56 | 36.22612 | 1.28692 | 36959 ft | 496 kts | 70° |
| 2026-05-05 17:57 | 36.24859 | 1.36779 | 36966 ft | 496 kts | 70° |
| 2026-05-05 17:57 | 36.27097 | 1.44859 | 36963 ft | 496 kts | 70° |
| 2026-05-05 17:58 | 36.29328 | 1.52935 | 36958 ft | 496 kts | 70° |
| 2026-05-05 17:58 | 36.31558 | 1.61035 | 36958 ft | 496 kts | 70° |
| 2026-05-05 17:59 | 36.33766 | 1.69080 | 36964 ft | 495 kts | 70° |
| 2026-05-05 17:59 | 36.35980 | 1.77170 | 36958 ft | 495 kts | 70° |
| 2026-05-05 18:00 | 36.37834 | 1.83962 | 36957 ft | 496 kts | 70° |
| 2026-05-05 18:00 | 36.40398 | 1.93386 | 36948 ft | 496 kts | 70° |
| 2026-05-05 18:01 | 36.42597 | 2.01496 | 36962 ft | 496 kts | 70° |
| 2026-05-05 18:01 | 36.44799 | 2.09637 | 36959 ft | 496 kts | 70° |
| 2026-05-05 18:02 | 36.46899 | 2.17795 | 36944 ft | 497 kts | 72° |
| 2026-05-05 18:02 | 36.48842 | 2.25984 | 36964 ft | 497 kts | 73° |
| 2026-05-05 18:03 | 36.50786 | 2.34229 | 36957 ft | 497 kts | 73° |
| 2026-05-05 18:03 | 36.52744 | 2.42457 | 36953 ft | 496 kts | 73° |
| 2026-05-05 18:04 | 36.54708 | 2.50686 | 36949 ft | 496 kts | 73° |
| 2026-05-05 18:04 | 36.56664 | 2.58903 | 36954 ft | 496 kts | 73° |
| 2026-05-05 18:05 | 36.58616 | 2.67140 | 36957 ft | 496 kts | 73° |
| 2026-05-05 18:05 | 36.60558 | 2.75362 | 36956 ft | 495 kts | 73° |
| 2026-05-05 18:06 | 36.62167 | 2.82197 | 36955 ft | 495 kts | 73° |
| 2026-05-05 18:06 | 36.64099 | 2.90427 | 36976 ft | 495 kts | 73° |
| 2026-05-05 18:07 | 36.66024 | 2.98661 | 36981 ft | 495 kts | 73° |
| 2026-05-05 18:07 | 36.67945 | 3.06901 | 36985 ft | 495 kts | 73° |
| 2026-05-05 18:08 | 36.69859 | 3.15144 | 36995 ft | 495 kts | 73° |
| 2026-05-05 18:08 | 36.71771 | 3.23406 | 37001 ft | 496 kts | 74° |
| 2026-05-05 18:09 | 36.73676 | 3.31666 | 36995 ft | 496 kts | 74° |
| 2026-05-05 18:09 | 36.75578 | 3.39941 | 36986 ft | 496 kts | 74° |
| 2026-05-05 18:10 | 36.77472 | 3.48208 | 36972 ft | 496 kts | 74° |
| 2026-05-05 18:10 | 36.79277 | 3.56509 | 36960 ft | 496 kts | 79° |
| 2026-05-05 18:10 | 36.79683 | 3.60775 | 36951 ft | 494 kts | 90° |
| 2026-05-05 18:11 | 36.79736 | 3.65051 | 36971 ft | 494 kts | 91° |
| 2026-05-05 18:11 | 36.79736 | 3.73630 | 36958 ft | 494 kts | 91° |
| 2026-05-05 18:12 | 36.79754 | 3.82202 | 36935 ft | 494 kts | 91° |
| 2026-05-05 18:12 | 36.79811 | 3.90780 | 36959 ft | 494 kts | 91° |
| 2026-05-05 18:13 | 36.79880 | 3.99349 | 36956 ft | 494 kts | 91° |
| 2026-05-05 18:13 | 36.79944 | 4.07911 | 36957 ft | 493 kts | 91° |
| 2026-05-05 18:14 | 36.80000 | 4.16470 | 36960 ft | 493 kts | 91° |
| 2026-05-05 18:14 | 36.80048 | 4.24958 | 36949 ft | 492 kts | 91° |
| 2026-05-05 18:15 | 36.80090 | 4.33504 | 36969 ft | 493 kts | 91° |
| 2026-05-05 18:15 | 36.80125 | 4.42064 | 36967 ft | 493 kts | 91° |
| 2026-05-05 18:16 | 36.80155 | 4.50628 | 36959 ft | 493 kts | 91° |
| 2026-05-05 18:16 | 36.80180 | 4.59191 | 36944 ft | 493 kts | 92° |
| 2026-05-05 18:17 | 36.80197 | 4.67737 | 36958 ft | 492 kts | 92° |
| 2026-05-05 18:17 | 36.80208 | 4.76284 | 36979 ft | 493 kts | 92° |
| 2026-05-05 18:18 | 36.80213 | 4.84824 | 36986 ft | 492 kts | 92° |
| 2026-05-05 18:18 | 36.80212 | 4.93383 | 36989 ft | 493 kts | 92° |
| 2026-05-05 18:19 | 36.80205 | 5.01885 | 36986 ft | 493 kts | 92° |
| 2026-05-05 18:19 | 36.80193 | 5.10274 | 36994 ft | 493 kts | 92° |
| 2026-05-05 18:20 | 36.80174 | 5.18828 | 36992 ft | 493 kts | 92° |
| 2026-05-05 18:20 | 36.80149 | 5.27377 | 36984 ft | 493 kts | 92° |
| 2026-05-05 18:21 | 36.80117 | 5.35937 | 36967 ft | 493 kts | 92° |
| 2026-05-05 18:21 | 36.80080 | 5.44476 | 36975 ft | 492 kts | 92° |
| 2026-05-05 18:22 | 36.80037 | 5.53017 | 36975 ft | 492 kts | 92° |
| 2026-05-05 18:22 | 36.79987 | 5.61508 | 36976 ft | 492 kts | 92° |
| 2026-05-05 18:23 | 36.79932 | 5.70050 | 36998 ft | 492 kts | 92° |
| 2026-05-05 18:23 | 36.79870 | 5.78607 | 36990 ft | 492 kts | 92° |
| 2026-05-05 18:24 | 36.79804 | 5.87149 | 36997 ft | 492 kts | 92° |
| 2026-05-05 18:24 | 36.79900 | 5.95692 | 36994 ft | 493 kts | 90° |
| 2026-05-05 18:25 | 36.80164 | 6.04245 | 36991 ft | 494 kts | 89° |
| 2026-05-05 18:25 | 36.80414 | 6.12807 | 36976 ft | 493 kts | 90° |
| 2026-05-05 18:26 | 36.80624 | 6.21352 | 36982 ft | 493 kts | 90° |
| 2026-05-05 18:26 | 36.80810 | 6.29654 | 36973 ft | 493 kts | 90° |
| 2026-05-05 18:27 | 36.80982 | 6.37695 | 36978 ft | 493 kts | 90° |
| 2026-05-05 18:27 | 36.81161 | 6.46250 | 36972 ft | 493 kts | 90° |
| 2026-05-05 18:28 | 36.81421 | 6.59080 | 36981 ft | 493 kts | 90° |
| 2026-05-05 18:28 | 36.81586 | 6.67638 | 36975 ft | 493 kts | 90° |
| 2026-05-05 18:29 | 36.81744 | 6.76131 | 36971 ft | 492 kts | 90° |
| 2026-05-05 18:29 | 36.81897 | 6.84718 | 36960 ft | 491 kts | 90° |
| 2026-05-05 18:30 | 36.82043 | 6.93234 | 36979 ft | 490 kts | 90° |
| 2026-05-05 18:30 | 36.82182 | 7.01684 | 36975 ft | 490 kts | 90° |
| 2026-05-05 18:31 | 36.82316 | 7.10187 | 36973 ft | 490 kts | 90° |
| 2026-05-05 18:31 | 36.82444 | 7.18691 | 36977 ft | 489 kts | 90° |
| 2026-05-05 18:32 | 36.82565 | 7.27181 | 36973 ft | 489 kts | 90° |
| 2026-05-05 18:32 | 36.82680 | 7.35665 | 36976 ft | 488 kts | 90° |
| 2026-05-05 18:33 | 36.82790 | 7.44152 | 36971 ft | 488 kts | 90° |
| 2026-05-05 18:33 | 36.82893 | 7.52614 | 36955 ft | 488 kts | 91° |
| 2026-05-05 18:34 | 36.82990 | 7.61103 | 36936 ft | 488 kts | 90° |
| 2026-05-05 18:34 | 36.83081 | 7.69572 | 36940 ft | 488 kts | 90° |
| 2026-05-05 18:35 | 36.83168 | 7.78064 | 36940 ft | 489 kts | 91° |
| 2026-05-05 18:35 | 36.83238 | 7.86515 | 36942 ft | 489 kts | 91° |
| 2026-05-05 18:36 | 36.83277 | 7.95014 | 36944 ft | 490 kts | 91° |
| 2026-05-05 18:36 | 36.83309 | 8.03525 | 36947 ft | 491 kts | 91° |
| 2026-05-05 18:37 | 36.83339 | 8.12044 | 36961 ft | 491 kts | 91° |
| 2026-05-05 18:37 | 36.83365 | 8.20573 | 36976 ft | 491 kts | 91° |
| 2026-05-05 18:38 | 36.83384 | 8.29119 | 36975 ft | 492 kts | 91° |
| 2026-05-05 18:38 | 36.83398 | 8.37658 | 36963 ft | 492 kts | 91° |
| 2026-05-05 18:39 | 36.83405 | 8.46190 | 36981 ft | 491 kts | 91° |
| 2026-05-05 18:39 | 36.83406 | 8.54725 | 36975 ft | 491 kts | 91° |
| 2026-05-05 18:40 | 36.83402 | 8.63253 | 36965 ft | 491 kts | 91° |
| 2026-05-05 18:40 | 36.83306 | 8.71768 | 36938 ft | 490 kts | 93° |
| 2026-05-05 18:41 | 36.83094 | 8.80264 | 36943 ft | 489 kts | 93° |
| 2026-05-05 18:41 | 36.82895 | 8.88736 | 36949 ft | 489 kts | 93° |
| 2026-05-05 18:42 | 36.82710 | 8.97157 | 36957 ft | 488 kts | 92° |
| 2026-05-05 18:42 | 36.82895 | 9.05640 | 36949 ft | 488 kts | 88° |
| 2026-05-05 18:43 | 36.83193 | 9.14089 | 36959 ft | 487 kts | 89° |
| 2026-05-05 18:43 | 36.83385 | 9.22559 | 36970 ft | 487 kts | 89° |
| 2026-05-05 18:44 | 36.83560 | 9.31015 | 36972 ft | 488 kts | 89° |
| 2026-05-05 18:44 | 36.83744 | 9.39492 | 36973 ft | 489 kts | 89° |
| 2026-05-05 18:45 | 36.83890 | 9.46535 | 36961 ft | 489 kts | 89° |
| 2026-05-05 18:45 | 36.84072 | 9.56425 | 36972 ft | 490 kts | 89° |
| 2026-05-05 18:46 | 36.84222 | 9.64938 | 36984 ft | 491 kts | 89° |
| 2026-05-05 18:46 | 36.84343 | 9.72033 | 36973 ft | 492 kts | 89° |
| 2026-05-05 18:47 | 36.84486 | 9.80626 | 36972 ft | 492 kts | 89° |
| 2026-05-05 18:47 | 36.84621 | 9.89099 | 36970 ft | 491 kts | 89° |
| 2026-05-05 18:48 | 36.84749 | 9.97593 | 36964 ft | 490 kts | 89° |
| 2026-05-05 18:48 | 36.84866 | 10.05665 | 36971 ft | 489 kts | 89° |
| 2026-05-05 18:49 | 36.84984 | 10.14148 | 36965 ft | 488 kts | 90° |
| 2026-05-05 18:49 | 36.85037 | 10.22616 | 36954 ft | 486 kts | 94° |
| 2026-05-05 18:50 | 36.83861 | 10.30877 | 36975 ft | 483 kts | 104° |
| 2026-05-05 18:50 | 36.82329 | 10.38974 | 36976 ft | 482 kts | 104° |
| 2026-05-05 18:51 | 36.80840 | 10.47130 | 36984 ft | 482 kts | 104° |
| 2026-05-05 18:51 | 36.79390 | 10.55285 | 36987 ft | 482 kts | 104° |
| 2026-05-05 18:52 | 36.77933 | 10.63447 | 36992 ft | 482 kts | 104° |
| 2026-05-05 18:52 | 36.76462 | 10.71594 | 36993 ft | 482 kts | 104° |
| 2026-05-05 18:53 | 36.74976 | 10.79753 | 36989 ft | 482 kts | 104° |
| 2026-05-05 18:53 | 36.73485 | 10.87917 | 36980 ft | 483 kts | 104° |
| 2026-05-05 18:54 | 36.71990 | 10.96081 | 36993 ft | 483 kts | 104° |
| 2026-05-05 18:54 | 36.70485 | 11.04264 | 36992 ft | 484 kts | 104° |
| 2026-05-05 18:55 | 36.68978 | 11.12448 | 36999 ft | 485 kts | 104° |
| 2026-05-05 18:55 | 36.67477 | 11.20587 | 36998 ft | 486 kts | 104° |
| 2026-05-05 18:56 | 36.65957 | 11.28792 | 36998 ft | 486 kts | 104° |
| 2026-05-05 18:56 | 36.64431 | 11.36993 | 36990 ft | 486 kts | 104° |
| 2026-05-05 18:57 | 36.62899 | 11.45204 | 36999 ft | 487 kts | 104° |
| 2026-05-05 18:57 | 36.61357 | 11.53414 | 36996 ft | 487 kts | 104° |
| 2026-05-05 18:58 | 36.59800 | 11.61632 | 37002 ft | 488 kts | 105° |
| 2026-05-05 18:58 | 36.58239 | 11.69844 | 37007 ft | 487 kts | 105° |
| 2026-05-05 18:59 | 36.56671 | 11.78065 | 37017 ft | 487 kts | 105° |
| 2026-05-05 18:59 | 36.55104 | 11.86251 | 37008 ft | 486 kts | 105° |
| 2026-05-05 19:00 | 36.53533 | 11.94425 | 37006 ft | 485 kts | 105° |
| 2026-05-05 19:00 | 36.51970 | 12.02531 | 37009 ft | 485 kts | 105° |
| 2026-05-05 19:01 | 36.50405 | 12.10671 | 37021 ft | 484 kts | 103° |
| 2026-05-05 19:01 | 36.49904 | 12.18997 | 37034 ft | 485 kts | 86° |
| 2026-05-05 19:02 | 36.51095 | 12.27242 | 37025 ft | 484 kts | 77° |
| 2026-05-05 19:02 | 36.52607 | 12.35405 | 37015 ft | 485 kts | 76° |
| 2026-05-05 19:03 | 36.54089 | 12.43583 | 37007 ft | 485 kts | 77° |
| 2026-05-05 19:03 | 36.55524 | 12.51785 | 37028 ft | 485 kts | 77° |
| 2026-05-05 19:04 | 36.56938 | 12.60008 | 37050 ft | 486 kts | 77° |
| 2026-05-05 19:04 | 36.58344 | 12.68231 | 37033 ft | 486 kts | 78° |
| 2026-05-05 19:05 | 36.59746 | 12.76449 | 37027 ft | 485 kts | 78° |
| 2026-05-05 19:05 | 36.61141 | 12.84659 | 37036 ft | 484 kts | 78° |
| 2026-05-05 19:06 | 36.62529 | 12.92860 | 36946 ft | 485 kts | 78° |
| 2026-05-05 19:06 | 36.63224 | 12.96983 | 36398 ft | 487 kts | 78° |
| 2026-05-05 19:06 | 36.63916 | 13.01091 | 35838 ft | 483 kts | 78° |
| 2026-05-05 19:07 | 36.64604 | 13.05189 | 35207 ft | 482 kts | 78° |
| 2026-05-05 19:07 | 36.65288 | 13.09270 | 34584 ft | 481 kts | 78° |
| 2026-05-05 19:07 | 36.65960 | 13.13289 | 33945 ft | 481 kts | 78° |
| 2026-05-05 19:07 | 36.66641 | 13.17376 | 33198 ft | 480 kts | 78° |
| 2026-05-05 19:08 | 36.67316 | 13.21434 | 32491 ft | 479 kts | 78° |
| 2026-05-05 19:08 | 36.67990 | 13.25493 | 31807 ft | 476 kts | 78° |
| 2026-05-05 19:08 | 36.68656 | 13.29515 | 31111 ft | 473 kts | 78° |
| 2026-05-05 19:08 | 36.69322 | 13.33542 | 30401 ft | 479 kts | 78° |
| 2026-05-05 19:09 | 36.69999 | 13.37643 | 29612 ft | 490 kts | 78° |
| 2026-05-05 19:09 | 36.70684 | 13.41806 | 28715 ft | 489 kts | 78° |
| 2026-05-05 19:09 | 36.71363 | 13.45943 | 27894 ft | 486 kts | 78° |
| 2026-05-05 19:09 | 36.72039 | 13.50069 | 27008 ft | 484 kts | 78° |
| 2026-05-05 19:10 | 36.72709 | 13.54168 | 26126 ft | 481 kts | 78° |
| 2026-05-05 19:10 | 36.73378 | 13.58270 | 25277 ft | 487 kts | 78° |
| 2026-05-05 19:10 | 36.74047 | 13.62381 | 24655 ft | 494 kts | 78° |
| 2026-05-05 19:10 | 36.74724 | 13.66546 | 23966 ft | 486 kts | 78° |
| 2026-05-05 19:11 | 36.75388 | 13.70646 | 23238 ft | 479 kts | 78° |
| 2026-05-05 19:11 | 36.76040 | 13.74686 | 22538 ft | 471 kts | 78° |
| 2026-05-05 19:11 | 36.76678 | 13.78640 | 22198 ft | 460 kts | 78° |
| 2026-05-05 19:11 | 36.77317 | 13.82611 | 21302 ft | 470 kts | 78° |
| 2026-05-05 19:12 | 36.77953 | 13.86576 | 20597 ft | 462 kts | 78° |
| 2026-05-05 19:12 | 36.78578 | 13.90477 | 19951 ft | 454 kts | 78° |
| 2026-05-05 19:12 | 36.79191 | 13.94312 | 19322 ft | 448 kts | 78° |
| 2026-05-05 19:12 | 36.80093 | 13.98009 | 18473 ft | 445 kts | 64° |
| 2026-05-05 19:13 | 36.81754 | 14.01228 | 17534 ft | 441 kts | 47° |
| 2026-05-05 19:13 | 36.83958 | 14.03841 | 16741 ft | 434 kts | 36° |
| 2026-05-05 19:13 | 36.86368 | 14.05978 | 16021 ft | 428 kts | 33° |
| 2026-05-05 19:13 | 36.88795 | 14.08101 | 15260 ft | 424 kts | 33° |
| 2026-05-05 19:14 | 36.91160 | 14.10190 | 14341 ft | 411 kts | 33° |
| 2026-05-05 19:14 | 36.93462 | 14.12244 | 13228 ft | 405 kts | 34° |
| 2026-05-05 19:14 | 36.95731 | 14.14282 | 12097 ft | 399 kts | 34° |
| 2026-05-05 19:14 | 36.97960 | 14.16294 | 11188 ft | 390 kts | 34° |
| 2026-05-05 19:15 | 37.00062 | 14.18200 | 11113 ft | 360 kts | 34° |
| 2026-05-05 19:15 | 37.02013 | 14.19971 | 11050 ft | 338 kts | 34° |
| 2026-05-05 19:15 | 37.03867 | 14.21655 | 10902 ft | 324 kts | 34° |
| 2026-05-05 19:15 | 37.05683 | 14.23303 | 10797 ft | 326 kts | 34° |
| 2026-05-05 19:16 | 37.07568 | 14.25012 | 10690 ft | 338 kts | 34° |
| 2026-05-05 19:16 | 37.09448 | 14.26720 | 10534 ft | 329 kts | 34° |
| 2026-05-05 19:16 | 37.11273 | 14.28380 | 10389 ft | 318 kts | 34° |
| 2026-05-05 19:16 | 37.13011 | 14.29964 | 10213 ft | 301 kts | 34° |
| 2026-05-05 19:17 | 37.14662 | 14.31468 | 9839 ft | 294 kts | 34° |
| 2026-05-05 19:17 | 37.16289 | 14.32950 | 9517 ft | 284 kts | 34° |
| 2026-05-05 19:17 | 37.17865 | 14.34387 | 9257 ft | 274 kts | 34° |
| 2026-05-05 19:17 | 37.19372 | 14.35762 | 9108 ft | 261 kts | 34° |
| 2026-05-05 19:18 | 37.20809 | 14.37073 | 9015 ft | 253 kts | 34° |
| 2026-05-05 19:18 | 37.22241 | 14.38380 | 8843 ft | 254 kts | 34° |
| 2026-05-05 19:18 | 37.23661 | 14.39676 | 8638 ft | 249 kts | 35° |
| 2026-05-05 19:18 | 37.25048 | 14.40943 | 8465 ft | 246 kts | 35° |
| 2026-05-05 19:19 | 37.26426 | 14.42202 | 8355 ft | 244 kts | 35° |
| 2026-05-05 19:19 | 37.27800 | 14.43459 | 8191 ft | 244 kts | 35° |
| 2026-05-05 19:19 | 37.29168 | 14.44711 | 8075 ft | 242 kts | 35° |
| 2026-05-05 19:19 | 37.30538 | 14.45918 | 7897 ft | 239 kts | 33° |
| 2026-05-05 19:20 | 37.31908 | 14.47057 | 7486 ft | 240 kts | 32° |
| 2026-05-05 19:20 | 37.33305 | 14.48211 | 7090 ft | 240 kts | 33° |
| 2026-05-05 19:20 | 37.34697 | 14.49368 | 6806 ft | 236 kts | 33° |
| 2026-05-05 19:20 | 37.36088 | 14.50529 | 6250 ft | 244 kts | 34° |
| 2026-05-05 19:21 | 37.37505 | 14.51718 | 5839 ft | 244 kts | 34° |
| 2026-05-05 19:21 | 37.38903 | 14.52891 | 5601 ft | 238 kts | 34° |
| 2026-05-05 19:21 | 37.40278 | 14.54047 | 5444 ft | 237 kts | 34° |
| 2026-05-05 19:21 | 37.41620 | 14.55251 | 5323 ft | 237 kts | 45° |
| 2026-05-05 19:22 | 37.42408 | 14.57040 | 5092 ft | 238 kts | 79° |
| 2026-05-05 19:22 | 37.42612 | 14.59108 | 4871 ft | 239 kts | 85° |
| 2026-05-05 19:22 | 37.42782 | 14.61164 | 4590 ft | 230 kts | 84° |
| 2026-05-05 19:22 | 37.42949 | 14.63127 | 4338 ft | 222 kts | 84° |
| 2026-05-05 19:23 | 37.43113 | 14.65031 | 4091 ft | 216 kts | 84° |
| 2026-05-05 19:23 | 37.43165 | 14.66868 | 3817 ft | 211 kts | 98° |
| 2026-05-05 19:23 | 37.42926 | 14.68665 | 3568 ft | 206 kts | 100° |
| 2026-05-05 19:23 | 37.42707 | 14.70418 | 3320 ft | 200 kts | 99° |
| 2026-05-05 19:24 | 37.42502 | 14.72130 | 3080 ft | 195 kts | 99° |
| 2026-05-05 19:24 | 37.42306 | 14.73796 | 2785 ft | 191 kts | 99° |
| 2026-05-05 19:24 | 37.42117 | 14.75401 | 2457 ft | 178 kts | 99° |
| 2026-05-05 19:24 | 37.41946 | 14.76869 | 2133 ft | 163 kts | 99° |
| 2026-05-05 19:25 | 37.41783 | 14.78239 | 1899 ft | 154 kts | 98° |
| 2026-05-05 19:25 | 37.41625 | 14.79560 | 1736 ft | 154 kts | 98° |
| 2026-05-05 19:25 | 37.41470 | 14.80897 | 1608 ft | 155 kts | 98° |
| 2026-05-05 19:25 | 37.41311 | 14.82240 | 1438 ft | 155 kts | 97° |
| 2026-05-05 19:26 | 37.41160 | 14.83580 | 1267 ft | 153 kts | 97° |
| 2026-05-05 19:26 | 37.41006 | 14.84899 | 1064 ft | 151 kts | 98° |
| 2026-05-05 19:26 | 37.40855 | 14.86213 | 852 ft | 152 kts | 97° |
| 2026-05-05 19:26 | 37.40704 | 14.87542 | 631 ft | 154 kts | 98° |
| 2026-05-05 19:27 | 37.40550 | 14.88872 | 430 ft | 153 kts | 97° |
| 2026-05-05 19:27 | 37.40406 | 14.90142 | 217 ft | 140 kts | 97° |
| 2026-05-05 19:27 | 37.40275 | 14.91286 | 86 ft | 123 kts | 97° |
| 2026-05-05 19:27 | 37.40184 | 14.92024 | 70 ft | 67 kts | 98° |
| 2026-05-05 19:28 | 37.40145 | 14.92360 | 78 ft | 18 kts | 98° |
| 2026-05-05 19:28 | 37.40126 | 14.92527 | 74 ft | 22 kts | 98° |
| 2026-05-05 19:28 | 37.40116 | 14.92645 | 77 ft | 8 kts | 78° |
| 2026-05-05 19:28 | 37.40160 | 14.92688 | 77 ft | 10 kts | 8° |
| 2026-05-05 19:29 | 37.40243 | 14.92703 | 76 ft | 15 kts | 8° |
| 2026-05-05 19:29 | 37.40313 | 14.92622 | 77 ft | 18 kts | 281° |
| 2026-05-05 19:29 | 37.40336 | 14.92441 | 75 ft | 24 kts | 278° |
| 2026-05-05 19:29 | 37.40362 | 14.92217 | 80 ft | 28 kts | 278° |
| 2026-05-05 19:30 | 37.40392 | 14.91962 | 82 ft | 26 kts | 277° |
| 2026-05-05 19:30 | 37.40433 | 14.91827 | 82 ft | 13 kts | 346° |
| 2026-05-05 19:30 | 37.40506 | 14.91766 | 84 ft | 12 kts | 317° |
| 2026-05-05 19:30 | 37.40570 | 14.91694 | 85 ft | 12 kts | 319° |
| 2026-05-05 19:31 | 37.40610 | 14.91608 | 83 ft | 12 kts | 272° |
| 2026-05-05 19:31 | 37.40610 | 14.91505 | 83 ft | 12 kts | 269° |
| 2026-05-05 19:31 | 37.40643 | 14.91470 | 83 ft | 0 kts | 4° |